<?xml version="1.0" encoding="UTF-8" standalone="no" ?>
<gpx xmlns="http://www.topografix.com/GPX/1/1" xmlns:xsi="http://www.w3.org/2001/XMLSchema-instance" xsi:schemaLocation="http://www.topografix.com/GPX/1/1 http://www.topografix.com/GPX/1/1/gpx.xsd" version="1.1" creator="VisuGPX - https://www.visugpx.com">
  <metadata>
    <name>Rando autour de Ventron (88)</name>
    <desc><![CDATA[Passage au Grand Ventron, Drumont, Tête de Fellering
18km,  800m]]></desc>
  </metadata>
  <trk>
    <name><![CDATA[Rando autour de Ventron (88)_1]]></name>
    <trkseg>
      <trkpt lat="47.94777" lon="6.90602">
        <ele>864</ele>
        <time>2016-10-09T07:40:53.826Z</time>
      </trkpt>
      <trkpt lat="47.94764" lon="6.90608">
        <ele>864</ele>
        <time>2016-10-09T07:41:54.825Z</time>
      </trkpt>
      <trkpt lat="47.94765" lon="6.90604">
        <ele>864</ele>
        <time>2016-10-09T07:42:55.823Z</time>
      </trkpt>
      <trkpt lat="47.94765" lon="6.90604">
        <ele>864</ele>
        <time>2016-10-09T07:43:56.815Z</time>
      </trkpt>
      <trkpt lat="47.94765" lon="6.90604">
        <ele>864</ele>
        <time>2016-10-09T07:44:56.821Z</time>
      </trkpt>
      <trkpt lat="47.94799" lon="6.90589">
        <ele>865</ele>
        <time>2016-10-09T07:45:57.815Z</time>
      </trkpt>
      <trkpt lat="47.94811" lon="6.90577">
        <ele>862</ele>
        <time>2016-10-09T07:46:01.814Z</time>
      </trkpt>
      <trkpt lat="47.94833" lon="6.90537">
        <ele>861</ele>
        <time>2016-10-09T07:46:16.815Z</time>
      </trkpt>
      <trkpt lat="47.94842" lon="6.90484">
        <ele>866</ele>
        <time>2016-10-09T07:46:45.816Z</time>
      </trkpt>
      <trkpt lat="47.94856" lon="6.90484">
        <ele>867</ele>
        <time>2016-10-09T07:46:52.818Z</time>
      </trkpt>
      <trkpt lat="47.94901" lon="6.90494">
        <ele>869</ele>
        <time>2016-10-09T07:47:25.815Z</time>
      </trkpt>
      <trkpt lat="47.94932" lon="6.90546">
        <ele>875</ele>
        <time>2016-10-09T07:48:02.815Z</time>
      </trkpt>
      <trkpt lat="47.94974" lon="6.90574">
        <ele>878</ele>
        <time>2016-10-09T07:48:41.818Z</time>
      </trkpt>
      <trkpt lat="47.95011" lon="6.90614">
        <ele>884</ele>
        <time>2016-10-09T07:49:11.816Z</time>
      </trkpt>
      <trkpt lat="47.95014" lon="6.90663">
        <ele>883</ele>
        <time>2016-10-09T07:50:11.82Z</time>
      </trkpt>
      <trkpt lat="47.95017" lon="6.90657">
        <ele>883</ele>
        <time>2016-10-09T07:51:11.821Z</time>
      </trkpt>
      <trkpt lat="47.95012" lon="6.90715">
        <ele>884</ele>
        <time>2016-10-09T07:52:12.824Z</time>
      </trkpt>
      <trkpt lat="47.95009" lon="6.90673">
        <ele>882</ele>
        <time>2016-10-09T07:53:13.821Z</time>
      </trkpt>
      <trkpt lat="47.95049" lon="6.90667">
        <ele>885</ele>
        <time>2016-10-09T07:54:14.813Z</time>
      </trkpt>
      <trkpt lat="47.95053" lon="6.90691">
        <ele>885</ele>
        <time>2016-10-09T07:54:32.815Z</time>
      </trkpt>
      <trkpt lat="47.95061" lon="6.90736">
        <ele>887</ele>
        <time>2016-10-09T07:55:04.818Z</time>
      </trkpt>
      <trkpt lat="47.95056" lon="6.90766">
        <ele>890</ele>
        <time>2016-10-09T07:55:22.816Z</time>
      </trkpt>
      <trkpt lat="47.95059" lon="6.90787">
        <ele>890</ele>
        <time>2016-10-09T07:55:36.815Z</time>
      </trkpt>
      <trkpt lat="47.95092" lon="6.90832">
        <ele>898</ele>
        <time>2016-10-09T07:56:08.815Z</time>
      </trkpt>
      <trkpt lat="47.9511" lon="6.90894">
        <ele>906</ele>
        <time>2016-10-09T07:56:50.815Z</time>
      </trkpt>
      <trkpt lat="47.95153" lon="6.90915">
        <ele>907</ele>
        <time>2016-10-09T07:57:33.815Z</time>
      </trkpt>
      <trkpt lat="47.95179" lon="6.9097">
        <ele>914</ele>
        <time>2016-10-09T07:58:14.815Z</time>
      </trkpt>
      <trkpt lat="47.95162" lon="6.91032">
        <ele>918</ele>
        <time>2016-10-09T07:59:11.82Z</time>
      </trkpt>
      <trkpt lat="47.95163" lon="6.91101">
        <ele>926</ele>
        <time>2016-10-09T08:00:03.819Z</time>
      </trkpt>
      <trkpt lat="47.95168" lon="6.91168">
        <ele>930</ele>
        <time>2016-10-09T08:00:52.815Z</time>
      </trkpt>
      <trkpt lat="47.9516" lon="6.91215">
        <ele>940</ele>
        <time>2016-10-09T08:01:52.82Z</time>
      </trkpt>
      <trkpt lat="47.95167" lon="6.91265">
        <ele>946</ele>
        <time>2016-10-09T08:02:52.82Z</time>
      </trkpt>
      <trkpt lat="47.95159" lon="6.91278">
        <ele>950</ele>
        <time>2016-10-09T08:03:53.818Z</time>
      </trkpt>
      <trkpt lat="47.95151" lon="6.9131">
        <ele>954</ele>
        <time>2016-10-09T08:04:53.818Z</time>
      </trkpt>
      <trkpt lat="47.95143" lon="6.91344">
        <ele>961</ele>
        <time>2016-10-09T08:05:54.814Z</time>
      </trkpt>
      <trkpt lat="47.95179" lon="6.91386">
        <ele>964</ele>
        <time>2016-10-09T08:06:42.814Z</time>
      </trkpt>
      <trkpt lat="47.9521" lon="6.91435">
        <ele>976</ele>
        <time>2016-10-09T08:07:33.813Z</time>
      </trkpt>
      <trkpt lat="47.95255" lon="6.9144">
        <ele>978</ele>
        <time>2016-10-09T08:08:23.818Z</time>
      </trkpt>
      <trkpt lat="47.95302" lon="6.91448">
        <ele>982</ele>
        <time>2016-10-09T08:09:00.815Z</time>
      </trkpt>
      <trkpt lat="47.95347" lon="6.91465">
        <ele>986</ele>
        <time>2016-10-09T08:09:42.814Z</time>
      </trkpt>
      <trkpt lat="47.9539" lon="6.91489">
        <ele>988</ele>
        <time>2016-10-09T08:10:21.813Z</time>
      </trkpt>
      <trkpt lat="47.95432" lon="6.9151">
        <ele>996</ele>
        <time>2016-10-09T08:11:06.814Z</time>
      </trkpt>
      <trkpt lat="47.95468" lon="6.91553">
        <ele>1001</ele>
        <time>2016-10-09T08:11:52.814Z</time>
      </trkpt>
      <trkpt lat="47.95505" lon="6.91593">
        <ele>1007</ele>
        <time>2016-10-09T08:12:31.814Z</time>
      </trkpt>
      <trkpt lat="47.95517" lon="6.91614">
        <ele>1011</ele>
        <time>2016-10-09T08:12:49.815Z</time>
      </trkpt>
      <trkpt lat="47.95568" lon="6.91675">
        <ele>1021</ele>
        <time>2016-10-09T08:13:47.813Z</time>
      </trkpt>
      <trkpt lat="47.95608" lon="6.91723">
        <ele>1028</ele>
        <time>2016-10-09T08:14:36.814Z</time>
      </trkpt>
      <trkpt lat="47.9564" lon="6.91737">
        <ele>1031</ele>
        <time>2016-10-09T08:15:37.814Z</time>
      </trkpt>
      <trkpt lat="47.95654" lon="6.91729">
        <ele>1032</ele>
        <time>2016-10-09T08:15:49.819Z</time>
      </trkpt>
      <trkpt lat="47.95696" lon="6.91703">
        <ele>1040</ele>
        <time>2016-10-09T08:16:34.811Z</time>
      </trkpt>
      <trkpt lat="47.95733" lon="6.91662">
        <ele>1038</ele>
        <time>2016-10-09T08:17:23.816Z</time>
      </trkpt>
      <trkpt lat="47.95794" lon="6.91618">
        <ele>1050</ele>
        <time>2016-10-09T08:18:22.821Z</time>
      </trkpt>
      <trkpt lat="47.95832" lon="6.91619">
        <ele>1054</ele>
        <time>2016-10-09T08:19:23.819Z</time>
      </trkpt>
      <trkpt lat="47.95832" lon="6.91615">
        <ele>1054</ele>
        <time>2016-10-09T08:20:23.819Z</time>
      </trkpt>
      <trkpt lat="47.95829" lon="6.9162">
        <ele>1054</ele>
        <time>2016-10-09T08:21:23.82Z</time>
      </trkpt>
      <trkpt lat="47.95826" lon="6.91642">
        <ele>1056</ele>
        <time>2016-10-09T08:21:42.816Z</time>
      </trkpt>
      <trkpt lat="47.95824" lon="6.91663">
        <ele>1060</ele>
        <time>2016-10-09T08:21:56.814Z</time>
      </trkpt>
      <trkpt lat="47.95815" lon="6.91692">
        <ele>1063</ele>
        <time>2016-10-09T08:22:13.819Z</time>
      </trkpt>
      <trkpt lat="47.95805" lon="6.91712">
        <ele>1063</ele>
        <time>2016-10-09T08:22:24.816Z</time>
      </trkpt>
      <trkpt lat="47.95785" lon="6.91751">
        <ele>1071</ele>
        <time>2016-10-09T08:22:50.818Z</time>
      </trkpt>
      <trkpt lat="47.95777" lon="6.91825">
        <ele>1075</ele>
        <time>2016-10-09T08:23:34.815Z</time>
      </trkpt>
      <trkpt lat="47.95754" lon="6.9188">
        <ele>1088</ele>
        <time>2016-10-09T08:24:17.811Z</time>
      </trkpt>
      <trkpt lat="47.95742" lon="6.91894">
        <ele>1080</ele>
        <time>2016-10-09T08:24:31.813Z</time>
      </trkpt>
      <trkpt lat="47.95742" lon="6.91914">
        <ele>1086</ele>
        <time>2016-10-09T08:24:41.815Z</time>
      </trkpt>
      <trkpt lat="47.95733" lon="6.91932">
        <ele>1091</ele>
        <time>2016-10-09T08:24:57.813Z</time>
      </trkpt>
      <trkpt lat="47.95725" lon="6.91964">
        <ele>1093</ele>
        <time>2016-10-09T08:25:21.825Z</time>
      </trkpt>
      <trkpt lat="47.957" lon="6.9202">
        <ele>1103</ele>
        <time>2016-10-09T08:26:07.814Z</time>
      </trkpt>
      <trkpt lat="47.95668" lon="6.92097">
        <ele>1110</ele>
        <time>2016-10-09T08:27:02.814Z</time>
      </trkpt>
      <trkpt lat="47.95654" lon="6.92126">
        <ele>1110</ele>
        <time>2016-10-09T08:27:26.813Z</time>
      </trkpt>
      <trkpt lat="47.95633" lon="6.9216">
        <ele>1112</ele>
        <time>2016-10-09T08:27:59.816Z</time>
      </trkpt>
      <trkpt lat="47.95615" lon="6.92183">
        <ele>1122</ele>
        <time>2016-10-09T08:28:24.815Z</time>
      </trkpt>
      <trkpt lat="47.95628" lon="6.92205">
        <ele>1124</ele>
        <time>2016-10-09T08:28:43.814Z</time>
      </trkpt>
      <trkpt lat="47.95655" lon="6.92214">
        <ele>1126</ele>
        <time>2016-10-09T08:29:12.813Z</time>
      </trkpt>
      <trkpt lat="47.95682" lon="6.92201">
        <ele>1131</ele>
        <time>2016-10-09T08:29:37.814Z</time>
      </trkpt>
      <trkpt lat="47.95708" lon="6.9219">
        <ele>1132</ele>
        <time>2016-10-09T08:29:57.814Z</time>
      </trkpt>
      <trkpt lat="47.95724" lon="6.92179">
        <ele>1133</ele>
        <time>2016-10-09T08:30:15.81Z</time>
      </trkpt>
      <trkpt lat="47.95769" lon="6.9215">
        <ele>1137</ele>
        <time>2016-10-09T08:31:00.815Z</time>
      </trkpt>
      <trkpt lat="47.95781" lon="6.92137">
        <ele>1137</ele>
        <time>2016-10-09T08:31:12.814Z</time>
      </trkpt>
      <trkpt lat="47.95802" lon="6.92127">
        <ele>1139</ele>
        <time>2016-10-09T08:31:32.814Z</time>
      </trkpt>
      <trkpt lat="47.95816" lon="6.92115">
        <ele>1139</ele>
        <time>2016-10-09T08:31:48.813Z</time>
      </trkpt>
      <trkpt lat="47.95866" lon="6.92089">
        <ele>1147</ele>
        <time>2016-10-09T08:32:35.813Z</time>
      </trkpt>
      <trkpt lat="47.95879" lon="6.92096">
        <ele>1148</ele>
        <time>2016-10-09T08:32:47.82Z</time>
      </trkpt>
      <trkpt lat="47.95894" lon="6.92089">
        <ele>1148</ele>
        <time>2016-10-09T08:33:01.813Z</time>
      </trkpt>
      <trkpt lat="47.95942" lon="6.92079">
        <ele>1142</ele>
        <time>2016-10-09T08:33:37.816Z</time>
      </trkpt>
      <trkpt lat="47.95979" lon="6.92087">
        <ele>1150</ele>
        <time>2016-10-09T08:34:07.819Z</time>
      </trkpt>
      <trkpt lat="47.96023" lon="6.92123">
        <ele>1150</ele>
        <time>2016-10-09T08:34:52.815Z</time>
      </trkpt>
      <trkpt lat="47.96017" lon="6.9217">
        <ele>1162</ele>
        <time>2016-10-09T08:35:52.815Z</time>
      </trkpt>
      <trkpt lat="47.95999" lon="6.92233">
        <ele>1172</ele>
        <time>2016-10-09T08:36:51.815Z</time>
      </trkpt>
      <trkpt lat="47.95982" lon="6.92295">
        <ele>1180</ele>
        <time>2016-10-09T08:37:48.814Z</time>
      </trkpt>
      <trkpt lat="47.95974" lon="6.92344">
        <ele>1187</ele>
        <time>2016-10-09T08:38:25.815Z</time>
      </trkpt>
      <trkpt lat="47.95969" lon="6.92399">
        <ele>1190</ele>
        <time>2016-10-09T08:39:04.814Z</time>
      </trkpt>
      <trkpt lat="47.95961" lon="6.92425">
        <ele>1194</ele>
        <time>2016-10-09T08:39:23.815Z</time>
      </trkpt>
      <trkpt lat="47.95958" lon="6.92454">
        <ele>1195</ele>
        <time>2016-10-09T08:39:41.815Z</time>
      </trkpt>
      <trkpt lat="47.95959" lon="6.92481">
        <ele>1196</ele>
        <time>2016-10-09T08:39:55.816Z</time>
      </trkpt>
      <trkpt lat="47.95952" lon="6.92527">
        <ele>1196</ele>
        <time>2016-10-09T08:40:25.815Z</time>
      </trkpt>
      <trkpt lat="47.95946" lon="6.92528">
        <ele>1196</ele>
        <time>2016-10-09T08:41:25.82Z</time>
      </trkpt>
      <trkpt lat="47.95945" lon="6.92533">
        <ele>1196</ele>
        <time>2016-10-09T08:42:25.823Z</time>
      </trkpt>
      <trkpt lat="47.95944" lon="6.92538">
        <ele>1196</ele>
        <time>2016-10-09T08:43:26.815Z</time>
      </trkpt>
      <trkpt lat="47.95944" lon="6.9256">
        <ele>1196</ele>
        <time>2016-10-09T08:44:15.82Z</time>
      </trkpt>
      <trkpt lat="47.95932" lon="6.92572">
        <ele>1196</ele>
        <time>2016-10-09T08:44:27.819Z</time>
      </trkpt>
      <trkpt lat="47.959" lon="6.92598">
        <ele>1190</ele>
        <time>2016-10-09T08:44:55.818Z</time>
      </trkpt>
      <trkpt lat="47.95857" lon="6.92623">
        <ele>1187</ele>
        <time>2016-10-09T08:45:32.818Z</time>
      </trkpt>
      <trkpt lat="47.95827" lon="6.92636">
        <ele>1184</ele>
        <time>2016-10-09T08:45:57.819Z</time>
      </trkpt>
      <trkpt lat="47.95814" lon="6.92641">
        <ele>1184</ele>
        <time>2016-10-09T08:46:07.823Z</time>
      </trkpt>
      <trkpt lat="47.95781" lon="6.92645">
        <ele>1183</ele>
        <time>2016-10-09T08:46:34.82Z</time>
      </trkpt>
      <trkpt lat="47.9577" lon="6.92633">
        <ele>1183</ele>
        <time>2016-10-09T08:46:46.82Z</time>
      </trkpt>
      <trkpt lat="47.95757" lon="6.92623">
        <ele>1183</ele>
        <time>2016-10-09T08:46:58.823Z</time>
      </trkpt>
      <trkpt lat="47.95738" lon="6.926">
        <ele>1179</ele>
        <time>2016-10-09T08:47:43.82Z</time>
      </trkpt>
      <trkpt lat="47.95717" lon="6.92575">
        <ele>1176</ele>
        <time>2016-10-09T08:48:07.821Z</time>
      </trkpt>
      <trkpt lat="47.95703" lon="6.92563">
        <ele>1175</ele>
        <time>2016-10-09T08:48:21.814Z</time>
      </trkpt>
      <trkpt lat="47.95671" lon="6.92536">
        <ele>1173</ele>
        <time>2016-10-09T08:49:21.816Z</time>
      </trkpt>
      <trkpt lat="47.95628" lon="6.92512">
        <ele>1162</ele>
        <time>2016-10-09T08:49:55.818Z</time>
      </trkpt>
      <trkpt lat="47.95603" lon="6.92497">
        <ele>1156</ele>
        <time>2016-10-09T08:50:20.815Z</time>
      </trkpt>
      <trkpt lat="47.95586" lon="6.92476">
        <ele>1156</ele>
        <time>2016-10-09T08:50:36.82Z</time>
      </trkpt>
      <trkpt lat="47.95578" lon="6.9245">
        <ele>1148</ele>
        <time>2016-10-09T08:50:52.818Z</time>
      </trkpt>
      <trkpt lat="47.95564" lon="6.92439">
        <ele>1148</ele>
        <time>2016-10-09T08:51:04.818Z</time>
      </trkpt>
      <trkpt lat="47.95521" lon="6.92404">
        <ele>1146</ele>
        <time>2016-10-09T08:51:39.818Z</time>
      </trkpt>
      <trkpt lat="47.95457" lon="6.92376">
        <ele>1142</ele>
        <time>2016-10-09T08:52:30.819Z</time>
      </trkpt>
      <trkpt lat="47.95442" lon="6.92374">
        <ele>1141</ele>
        <time>2016-10-09T08:52:42.82Z</time>
      </trkpt>
      <trkpt lat="47.95394" lon="6.92358">
        <ele>1140</ele>
        <time>2016-10-09T08:53:25.828Z</time>
      </trkpt>
      <trkpt lat="47.95381" lon="6.92348">
        <ele>1140</ele>
        <time>2016-10-09T08:53:34.819Z</time>
      </trkpt>
      <trkpt lat="47.95349" lon="6.92343">
        <ele>1142</ele>
        <time>2016-10-09T08:54:01.815Z</time>
      </trkpt>
      <trkpt lat="47.95301" lon="6.92345">
        <ele>1144</ele>
        <time>2016-10-09T08:54:45.82Z</time>
      </trkpt>
      <trkpt lat="47.9526" lon="6.92342">
        <ele>1147</ele>
        <time>2016-10-09T08:55:19.824Z</time>
      </trkpt>
      <trkpt lat="47.95246" lon="6.92346">
        <ele>1148</ele>
        <time>2016-10-09T08:55:32.823Z</time>
      </trkpt>
      <trkpt lat="47.95205" lon="6.92377">
        <ele>1148</ele>
        <time>2016-10-09T08:56:11.819Z</time>
      </trkpt>
      <trkpt lat="47.9517" lon="6.92419">
        <ele>1150</ele>
        <time>2016-10-09T08:56:50.82Z</time>
      </trkpt>
      <trkpt lat="47.95159" lon="6.92458">
        <ele>1147</ele>
        <time>2016-10-09T08:57:12.821Z</time>
      </trkpt>
      <trkpt lat="47.95151" lon="6.92506">
        <ele>1140</ele>
        <time>2016-10-09T08:57:37.819Z</time>
      </trkpt>
      <trkpt lat="47.95133" lon="6.92515">
        <ele>1139</ele>
        <time>2016-10-09T08:57:57.823Z</time>
      </trkpt>
      <trkpt lat="47.95119" lon="6.9252">
        <ele>1139</ele>
        <time>2016-10-09T08:58:09.816Z</time>
      </trkpt>
      <trkpt lat="47.95074" lon="6.92524">
        <ele>1140</ele>
        <time>2016-10-09T08:58:46.82Z</time>
      </trkpt>
      <trkpt lat="47.95038" lon="6.9254">
        <ele>1137</ele>
        <time>2016-10-09T08:59:12.814Z</time>
      </trkpt>
      <trkpt lat="47.9501" lon="6.9255">
        <ele>1135</ele>
        <time>2016-10-09T08:59:39.819Z</time>
      </trkpt>
      <trkpt lat="47.9499" lon="6.92501">
        <ele>1129</ele>
        <time>2016-10-09T09:00:27.814Z</time>
      </trkpt>
      <trkpt lat="47.94982" lon="6.92434">
        <ele>1124</ele>
        <time>2016-10-09T09:00:58.819Z</time>
      </trkpt>
      <trkpt lat="47.94989" lon="6.92406">
        <ele>1125</ele>
        <time>2016-10-09T09:01:15.815Z</time>
      </trkpt>
      <trkpt lat="47.95003" lon="6.92341">
        <ele>1125</ele>
        <time>2016-10-09T09:01:57.82Z</time>
      </trkpt>
      <trkpt lat="47.94972" lon="6.92346">
        <ele>1120</ele>
        <time>2016-10-09T09:02:33.818Z</time>
      </trkpt>
      <trkpt lat="47.94961" lon="6.92333">
        <ele>1119</ele>
        <time>2016-10-09T09:03:34.815Z</time>
      </trkpt>
      <trkpt lat="47.94968" lon="6.92267">
        <ele>1112</ele>
        <time>2016-10-09T09:04:10.816Z</time>
      </trkpt>
      <trkpt lat="47.94956" lon="6.92248">
        <ele>1108</ele>
        <time>2016-10-09T09:04:25.84Z</time>
      </trkpt>
      <trkpt lat="47.94935" lon="6.92235">
        <ele>1109</ele>
        <time>2016-10-09T09:04:43.835Z</time>
      </trkpt>
      <trkpt lat="47.94928" lon="6.92253">
        <ele>1114</ele>
        <time>2016-10-09T09:04:51.826Z</time>
      </trkpt>
      <trkpt lat="47.94903" lon="6.9231">
        <ele>1120</ele>
        <time>2016-10-09T09:05:37.819Z</time>
      </trkpt>
      <trkpt lat="47.94908" lon="6.92269">
        <ele>1119</ele>
        <time>2016-10-09T09:06:38.816Z</time>
      </trkpt>
      <trkpt lat="47.94867" lon="6.92256">
        <ele>1126</ele>
        <time>2016-10-09T09:07:39.818Z</time>
      </trkpt>
      <trkpt lat="47.94854" lon="6.92265">
        <ele>1129</ele>
        <time>2016-10-09T09:07:53.818Z</time>
      </trkpt>
      <trkpt lat="47.94818" lon="6.92242">
        <ele>1138</ele>
        <time>2016-10-09T09:08:53.819Z</time>
      </trkpt>
      <trkpt lat="47.94787" lon="6.92193">
        <ele>1139</ele>
        <time>2016-10-09T09:09:35.82Z</time>
      </trkpt>
      <trkpt lat="47.94778" lon="6.92165">
        <ele>1139</ele>
        <time>2016-10-09T09:09:50.814Z</time>
      </trkpt>
      <trkpt lat="47.94751" lon="6.92111">
        <ele>1140</ele>
        <time>2016-10-09T09:10:27.82Z</time>
      </trkpt>
      <trkpt lat="47.94738" lon="6.92102">
        <ele>1143</ele>
        <time>2016-10-09T09:10:40.819Z</time>
      </trkpt>
      <trkpt lat="47.94694" lon="6.92072">
        <ele>1145</ele>
        <time>2016-10-09T09:11:29.819Z</time>
      </trkpt>
      <trkpt lat="47.9468" lon="6.9206">
        <ele>1145</ele>
        <time>2016-10-09T09:11:37.818Z</time>
      </trkpt>
      <trkpt lat="47.94661" lon="6.92056">
        <ele>1145</ele>
        <time>2016-10-09T09:11:51.82Z</time>
      </trkpt>
      <trkpt lat="47.94617" lon="6.92045">
        <ele>1144</ele>
        <time>2016-10-09T09:12:30.82Z</time>
      </trkpt>
      <trkpt lat="47.94578" lon="6.92042">
        <ele>1137</ele>
        <time>2016-10-09T09:13:30.823Z</time>
      </trkpt>
      <trkpt lat="47.94575" lon="6.92044">
        <ele>1137</ele>
        <time>2016-10-09T09:14:31.821Z</time>
      </trkpt>
      <trkpt lat="47.94573" lon="6.92047">
        <ele>1136</ele>
        <time>2016-10-09T09:15:31.824Z</time>
      </trkpt>
      <trkpt lat="47.94575" lon="6.92043">
        <ele>1137</ele>
        <time>2016-10-09T09:16:31.824Z</time>
      </trkpt>
      <trkpt lat="47.94575" lon="6.92043">
        <ele>1137</ele>
        <time>2016-10-09T09:17:32.821Z</time>
      </trkpt>
      <trkpt lat="47.94573" lon="6.92038">
        <ele>1137</ele>
        <time>2016-10-09T09:18:32.821Z</time>
      </trkpt>
      <trkpt lat="47.94573" lon="6.92039">
        <ele>1137</ele>
        <time>2016-10-09T09:19:32.821Z</time>
      </trkpt>
      <trkpt lat="47.94573" lon="6.92039">
        <ele>1137</ele>
        <time>2016-10-09T09:20:33.815Z</time>
      </trkpt>
      <trkpt lat="47.94573" lon="6.92039">
        <ele>1137</ele>
        <time>2016-10-09T09:21:33.816Z</time>
      </trkpt>
      <trkpt lat="47.94571" lon="6.92038">
        <ele>1137</ele>
        <time>2016-10-09T09:22:34.823Z</time>
      </trkpt>
      <trkpt lat="47.94573" lon="6.92042">
        <ele>1137</ele>
        <time>2016-10-09T09:23:34.824Z</time>
      </trkpt>
      <trkpt lat="47.94572" lon="6.92039">
        <ele>1137</ele>
        <time>2016-10-09T09:24:34.825Z</time>
      </trkpt>
      <trkpt lat="47.94576" lon="6.92041">
        <ele>1137</ele>
        <time>2016-10-09T09:25:35.819Z</time>
      </trkpt>
      <trkpt lat="47.94577" lon="6.92032">
        <ele>1138</ele>
        <time>2016-10-09T09:26:35.82Z</time>
      </trkpt>
      <trkpt lat="47.94572" lon="6.9201">
        <ele>1141</ele>
        <time>2016-10-09T09:26:52.836Z</time>
      </trkpt>
      <trkpt lat="47.94561" lon="6.9199">
        <ele>1144</ele>
        <time>2016-10-09T09:27:04.819Z</time>
      </trkpt>
      <trkpt lat="47.94548" lon="6.92001">
        <ele>1139</ele>
        <time>2016-10-09T09:27:14.82Z</time>
      </trkpt>
      <trkpt lat="47.94533" lon="6.92002">
        <ele>1138</ele>
        <time>2016-10-09T09:27:30.82Z</time>
      </trkpt>
      <trkpt lat="47.94509" lon="6.91994">
        <ele>1142</ele>
        <time>2016-10-09T09:27:47.826Z</time>
      </trkpt>
      <trkpt lat="47.94494" lon="6.91988">
        <ele>1140</ele>
        <time>2016-10-09T09:28:01.821Z</time>
      </trkpt>
      <trkpt lat="47.94474" lon="6.91965">
        <ele>1139</ele>
        <time>2016-10-09T09:28:25.819Z</time>
      </trkpt>
      <trkpt lat="47.94462" lon="6.91955">
        <ele>1139</ele>
        <time>2016-10-09T09:28:34.815Z</time>
      </trkpt>
      <trkpt lat="47.94428" lon="6.91942">
        <ele>1138</ele>
        <time>2016-10-09T09:29:00.815Z</time>
      </trkpt>
      <trkpt lat="47.94418" lon="6.91954">
        <ele>1137</ele>
        <time>2016-10-09T09:29:08.818Z</time>
      </trkpt>
      <trkpt lat="47.94414" lon="6.91976">
        <ele>1126</ele>
        <time>2016-10-09T09:29:19.823Z</time>
      </trkpt>
      <trkpt lat="47.94395" lon="6.91994">
        <ele>1124</ele>
        <time>2016-10-09T09:29:57.826Z</time>
      </trkpt>
      <trkpt lat="47.94393" lon="6.9203">
        <ele>1112</ele>
        <time>2016-10-09T09:30:58.816Z</time>
      </trkpt>
      <trkpt lat="47.94379" lon="6.92028">
        <ele>1110</ele>
        <time>2016-10-09T09:31:23.821Z</time>
      </trkpt>
      <trkpt lat="47.94369" lon="6.92042">
        <ele>1108</ele>
        <time>2016-10-09T09:31:41.824Z</time>
      </trkpt>
      <trkpt lat="47.94352" lon="6.92039">
        <ele>1108</ele>
        <time>2016-10-09T09:32:17.823Z</time>
      </trkpt>
      <trkpt lat="47.94338" lon="6.92035">
        <ele>1107</ele>
        <time>2016-10-09T09:32:26.815Z</time>
      </trkpt>
      <trkpt lat="47.94335" lon="6.92055">
        <ele>1105</ele>
        <time>2016-10-09T09:32:37.821Z</time>
      </trkpt>
      <trkpt lat="47.9432" lon="6.92108">
        <ele>1088</ele>
        <time>2016-10-09T09:33:14.816Z</time>
      </trkpt>
      <trkpt lat="47.94298" lon="6.92121">
        <ele>1085</ele>
        <time>2016-10-09T09:33:35.815Z</time>
      </trkpt>
      <trkpt lat="47.9429" lon="6.9214">
        <ele>1083</ele>
        <time>2016-10-09T09:33:46.818Z</time>
      </trkpt>
      <trkpt lat="47.94271" lon="6.92144">
        <ele>1082</ele>
        <time>2016-10-09T09:34:21.818Z</time>
      </trkpt>
      <trkpt lat="47.94253" lon="6.92142">
        <ele>1082</ele>
        <time>2016-10-09T09:34:35.816Z</time>
      </trkpt>
      <trkpt lat="47.9424" lon="6.92149">
        <ele>1078</ele>
        <time>2016-10-09T09:34:43.82Z</time>
      </trkpt>
      <trkpt lat="47.94224" lon="6.92155">
        <ele>1078</ele>
        <time>2016-10-09T09:34:55.813Z</time>
      </trkpt>
      <trkpt lat="47.9421" lon="6.92155">
        <ele>1078</ele>
        <time>2016-10-09T09:35:06.816Z</time>
      </trkpt>
      <trkpt lat="47.94188" lon="6.92158">
        <ele>1077</ele>
        <time>2016-10-09T09:35:27.815Z</time>
      </trkpt>
      <trkpt lat="47.94174" lon="6.92167">
        <ele>1076</ele>
        <time>2016-10-09T09:35:37.816Z</time>
      </trkpt>
      <trkpt lat="47.94167" lon="6.92184">
        <ele>1076</ele>
        <time>2016-10-09T09:36:14.813Z</time>
      </trkpt>
      <trkpt lat="47.94135" lon="6.92238">
        <ele>1080</ele>
        <time>2016-10-09T09:37:02.819Z</time>
      </trkpt>
      <trkpt lat="47.9414" lon="6.92258">
        <ele>1080</ele>
        <time>2016-10-09T09:37:09.82Z</time>
      </trkpt>
      <trkpt lat="47.94125" lon="6.92323">
        <ele>1078</ele>
        <time>2016-10-09T09:37:59.82Z</time>
      </trkpt>
      <trkpt lat="47.94097" lon="6.92309">
        <ele>1080</ele>
        <time>2016-10-09T09:38:24.815Z</time>
      </trkpt>
      <trkpt lat="47.94082" lon="6.9231">
        <ele>1080</ele>
        <time>2016-10-09T09:38:33.82Z</time>
      </trkpt>
      <trkpt lat="47.94037" lon="6.92315">
        <ele>1079</ele>
        <time>2016-10-09T09:39:12.82Z</time>
      </trkpt>
      <trkpt lat="47.94022" lon="6.92316">
        <ele>1078</ele>
        <time>2016-10-09T09:39:22.815Z</time>
      </trkpt>
      <trkpt lat="47.93977" lon="6.92304">
        <ele>1071</ele>
        <time>2016-10-09T09:40:00.82Z</time>
      </trkpt>
      <trkpt lat="47.93952" lon="6.92299">
        <ele>1069</ele>
        <time>2016-10-09T09:40:17.818Z</time>
      </trkpt>
      <trkpt lat="47.93925" lon="6.92279">
        <ele>1069</ele>
        <time>2016-10-09T09:40:44.818Z</time>
      </trkpt>
      <trkpt lat="47.93928" lon="6.92259">
        <ele>1071</ele>
        <time>2016-10-09T09:40:58.818Z</time>
      </trkpt>
      <trkpt lat="47.93934" lon="6.92241">
        <ele>1072</ele>
        <time>2016-10-09T09:41:10.815Z</time>
      </trkpt>
      <trkpt lat="47.93935" lon="6.92198">
        <ele>1070</ele>
        <time>2016-10-09T09:41:43.82Z</time>
      </trkpt>
      <trkpt lat="47.93916" lon="6.92219">
        <ele>1063</ele>
        <time>2016-10-09T09:42:14.815Z</time>
      </trkpt>
      <trkpt lat="47.93904" lon="6.92148">
        <ele>1056</ele>
        <time>2016-10-09T09:42:59.816Z</time>
      </trkpt>
      <trkpt lat="47.93884" lon="6.92167">
        <ele>1059</ele>
        <time>2016-10-09T09:43:19.816Z</time>
      </trkpt>
      <trkpt lat="47.93879" lon="6.92186">
        <ele>1059</ele>
        <time>2016-10-09T09:43:30.819Z</time>
      </trkpt>
      <trkpt lat="47.93863" lon="6.92202">
        <ele>1058</ele>
        <time>2016-10-09T09:43:53.85Z</time>
      </trkpt>
      <trkpt lat="47.93849" lon="6.92197">
        <ele>1057</ele>
        <time>2016-10-09T09:44:05.819Z</time>
      </trkpt>
      <trkpt lat="47.93801" lon="6.92192">
        <ele>1061</ele>
        <time>2016-10-09T09:44:48.824Z</time>
      </trkpt>
      <trkpt lat="47.93775" lon="6.9225">
        <ele>1066</ele>
        <time>2016-10-09T09:45:39.816Z</time>
      </trkpt>
      <trkpt lat="47.93788" lon="6.92242">
        <ele>1063</ele>
        <time>2016-10-09T09:46:39.818Z</time>
      </trkpt>
      <trkpt lat="47.93758" lon="6.92227">
        <ele>1067</ele>
        <time>2016-10-09T09:47:29.818Z</time>
      </trkpt>
      <trkpt lat="47.93751" lon="6.92251">
        <ele>1075</ele>
        <time>2016-10-09T09:47:44.815Z</time>
      </trkpt>
      <trkpt lat="47.93745" lon="6.92231">
        <ele>1079</ele>
        <time>2016-10-09T09:48:31.824Z</time>
      </trkpt>
      <trkpt lat="47.93703" lon="6.92261">
        <ele>1092</ele>
        <time>2016-10-09T09:49:29.821Z</time>
      </trkpt>
      <trkpt lat="47.93708" lon="6.92289">
        <ele>1092</ele>
        <time>2016-10-09T09:50:30.82Z</time>
      </trkpt>
      <trkpt lat="47.93694" lon="6.9228">
        <ele>1095</ele>
        <time>2016-10-09T09:50:38.82Z</time>
      </trkpt>
      <trkpt lat="47.93685" lon="6.92346">
        <ele>1106</ele>
        <time>2016-10-09T09:51:39.823Z</time>
      </trkpt>
      <trkpt lat="47.93667" lon="6.92336">
        <ele>1115</ele>
        <time>2016-10-09T09:52:40.816Z</time>
      </trkpt>
      <trkpt lat="47.93661" lon="6.92366">
        <ele>1123</ele>
        <time>2016-10-09T09:53:04.816Z</time>
      </trkpt>
      <trkpt lat="47.93653" lon="6.92388">
        <ele>1125</ele>
        <time>2016-10-09T09:53:42.815Z</time>
      </trkpt>
      <trkpt lat="47.93624" lon="6.92449">
        <ele>1130</ele>
        <time>2016-10-09T09:54:42.815Z</time>
      </trkpt>
      <trkpt lat="47.93612" lon="6.92459">
        <ele>1131</ele>
        <time>2016-10-09T09:55:04.814Z</time>
      </trkpt>
      <trkpt lat="47.93552" lon="6.92479">
        <ele>1137</ele>
        <time>2016-10-09T09:55:57.815Z</time>
      </trkpt>
      <trkpt lat="47.93516" lon="6.92478">
        <ele>1138</ele>
        <time>2016-10-09T09:56:29.815Z</time>
      </trkpt>
      <trkpt lat="47.93495" lon="6.9249">
        <ele>1139</ele>
        <time>2016-10-09T09:56:47.815Z</time>
      </trkpt>
      <trkpt lat="47.93482" lon="6.92496">
        <ele>1138</ele>
        <time>2016-10-09T09:56:56.815Z</time>
      </trkpt>
      <trkpt lat="47.93448" lon="6.925">
        <ele>1132</ele>
        <time>2016-10-09T09:57:56.819Z</time>
      </trkpt>
      <trkpt lat="47.93435" lon="6.92496">
        <ele>1136</ele>
        <time>2016-10-09T09:58:20.823Z</time>
      </trkpt>
      <trkpt lat="47.9341" lon="6.92493">
        <ele>1134</ele>
        <time>2016-10-09T09:58:39.819Z</time>
      </trkpt>
      <trkpt lat="47.9339" lon="6.92478">
        <ele>1133</ele>
        <time>2016-10-09T09:58:59.82Z</time>
      </trkpt>
      <trkpt lat="47.93343" lon="6.92433">
        <ele>1135</ele>
        <time>2016-10-09T09:59:41.818Z</time>
      </trkpt>
      <trkpt lat="47.93329" lon="6.92427">
        <ele>1135</ele>
        <time>2016-10-09T09:59:52.813Z</time>
      </trkpt>
      <trkpt lat="47.93278" lon="6.92389">
        <ele>1140</ele>
        <time>2016-10-09T10:00:43.82Z</time>
      </trkpt>
      <trkpt lat="47.93258" lon="6.92383">
        <ele>1140</ele>
        <time>2016-10-09T10:00:59.819Z</time>
      </trkpt>
      <trkpt lat="47.93242" lon="6.92381">
        <ele>1142</ele>
        <time>2016-10-09T10:01:09.824Z</time>
      </trkpt>
      <trkpt lat="47.93219" lon="6.92397">
        <ele>1142</ele>
        <time>2016-10-09T10:01:34.814Z</time>
      </trkpt>
      <trkpt lat="47.93204" lon="6.92406">
        <ele>1142</ele>
        <time>2016-10-09T10:01:44.814Z</time>
      </trkpt>
      <trkpt lat="47.93189" lon="6.92412">
        <ele>1142</ele>
        <time>2016-10-09T10:01:57.819Z</time>
      </trkpt>
      <trkpt lat="47.93175" lon="6.92419">
        <ele>1137</ele>
        <time>2016-10-09T10:02:07.814Z</time>
      </trkpt>
      <trkpt lat="47.93155" lon="6.92439">
        <ele>1140</ele>
        <time>2016-10-09T10:02:27.813Z</time>
      </trkpt>
      <trkpt lat="47.93109" lon="6.92515">
        <ele>1140</ele>
        <time>2016-10-09T10:03:27.814Z</time>
      </trkpt>
      <trkpt lat="47.93086" lon="6.9258">
        <ele>1149</ele>
        <time>2016-10-09T10:04:27.815Z</time>
      </trkpt>
      <trkpt lat="47.93081" lon="6.9259">
        <ele>1149</ele>
        <time>2016-10-09T10:05:27.816Z</time>
      </trkpt>
      <trkpt lat="47.93081" lon="6.9259">
        <ele>1149</ele>
        <time>2016-10-09T10:06:27.819Z</time>
      </trkpt>
      <trkpt lat="47.93062" lon="6.92581">
        <ele>1150</ele>
        <time>2016-10-09T10:07:27.825Z</time>
      </trkpt>
      <trkpt lat="47.93048" lon="6.92575">
        <ele>1149</ele>
        <time>2016-10-09T10:07:58.816Z</time>
      </trkpt>
      <trkpt lat="47.93023" lon="6.92564">
        <ele>1149</ele>
        <time>2016-10-09T10:08:20.818Z</time>
      </trkpt>
      <trkpt lat="47.92989" lon="6.92536">
        <ele>1143</ele>
        <time>2016-10-09T10:08:54.818Z</time>
      </trkpt>
      <trkpt lat="47.92947" lon="6.92509">
        <ele>1139</ele>
        <time>2016-10-09T10:09:33.82Z</time>
      </trkpt>
      <trkpt lat="47.9289" lon="6.92482">
        <ele>1127</ele>
        <time>2016-10-09T10:10:19.815Z</time>
      </trkpt>
      <trkpt lat="47.92864" lon="6.92464">
        <ele>1124</ele>
        <time>2016-10-09T10:10:57.818Z</time>
      </trkpt>
      <trkpt lat="47.92828" lon="6.9244">
        <ele>1111</ele>
        <time>2016-10-09T10:11:57.819Z</time>
      </trkpt>
      <trkpt lat="47.92827" lon="6.92438">
        <ele>1111</ele>
        <time>2016-10-09T10:12:58.818Z</time>
      </trkpt>
      <trkpt lat="47.92827" lon="6.92439">
        <ele>1111</ele>
        <time>2016-10-09T10:13:58.819Z</time>
      </trkpt>
      <trkpt lat="47.92827" lon="6.92439">
        <ele>1111</ele>
        <time>2016-10-09T10:14:59.819Z</time>
      </trkpt>
      <trkpt lat="47.92827" lon="6.92439">
        <ele>1111</ele>
        <time>2016-10-09T10:15:59.831Z</time>
      </trkpt>
      <trkpt lat="47.92827" lon="6.92439">
        <ele>1111</ele>
        <time>2016-10-09T10:17:00.819Z</time>
      </trkpt>
      <trkpt lat="47.92824" lon="6.9244">
        <ele>1111</ele>
        <time>2016-10-09T10:18:00.821Z</time>
      </trkpt>
      <trkpt lat="47.92824" lon="6.9244">
        <ele>1111</ele>
        <time>2016-10-09T10:19:00.823Z</time>
      </trkpt>
      <trkpt lat="47.92824" lon="6.9244">
        <ele>1111</ele>
        <time>2016-10-09T10:20:01.815Z</time>
      </trkpt>
      <trkpt lat="47.9282" lon="6.92448">
        <ele>1109</ele>
        <time>2016-10-09T10:21:01.824Z</time>
      </trkpt>
      <trkpt lat="47.9282" lon="6.92448">
        <ele>1109</ele>
        <time>2016-10-09T10:22:02.819Z</time>
      </trkpt>
      <trkpt lat="47.9282" lon="6.92448">
        <ele>1109</ele>
        <time>2016-10-09T10:23:03.815Z</time>
      </trkpt>
      <trkpt lat="47.9282" lon="6.92448">
        <ele>1109</ele>
        <time>2016-10-09T10:24:03.823Z</time>
      </trkpt>
      <trkpt lat="47.9282" lon="6.92448">
        <ele>1109</ele>
        <time>2016-10-09T10:25:04.816Z</time>
      </trkpt>
      <trkpt lat="47.92816" lon="6.92448">
        <ele>1109</ele>
        <time>2016-10-09T10:26:04.82Z</time>
      </trkpt>
      <trkpt lat="47.92818" lon="6.92451">
        <ele>1109</ele>
        <time>2016-10-09T10:27:04.821Z</time>
      </trkpt>
      <trkpt lat="47.92821" lon="6.92449">
        <ele>1109</ele>
        <time>2016-10-09T10:28:05.819Z</time>
      </trkpt>
      <trkpt lat="47.92821" lon="6.92449">
        <ele>1109</ele>
        <time>2016-10-09T10:29:05.82Z</time>
      </trkpt>
      <trkpt lat="47.92817" lon="6.92453">
        <ele>1108</ele>
        <time>2016-10-09T10:30:06.818Z</time>
      </trkpt>
      <trkpt lat="47.92821" lon="6.92451">
        <ele>1109</ele>
        <time>2016-10-09T10:31:06.819Z</time>
      </trkpt>
      <trkpt lat="47.92817" lon="6.9245">
        <ele>1108</ele>
        <time>2016-10-09T10:32:06.821Z</time>
      </trkpt>
      <trkpt lat="47.92817" lon="6.9245">
        <ele>1109</ele>
        <time>2016-10-09T10:33:07.823Z</time>
      </trkpt>
      <trkpt lat="47.92821" lon="6.92448">
        <ele>1109</ele>
        <time>2016-10-09T10:34:08.819Z</time>
      </trkpt>
      <trkpt lat="47.92821" lon="6.92449">
        <ele>1109</ele>
        <time>2016-10-09T10:35:08.823Z</time>
      </trkpt>
      <trkpt lat="47.92821" lon="6.92449">
        <ele>1109</ele>
        <time>2016-10-09T10:36:09.821Z</time>
      </trkpt>
      <trkpt lat="47.92822" lon="6.92449">
        <ele>1109</ele>
        <time>2016-10-09T10:37:10.825Z</time>
      </trkpt>
      <trkpt lat="47.92822" lon="6.92449">
        <ele>1109</ele>
        <time>2016-10-09T10:38:11.818Z</time>
      </trkpt>
      <trkpt lat="47.92822" lon="6.92448">
        <ele>1109</ele>
        <time>2016-10-09T10:39:11.818Z</time>
      </trkpt>
      <trkpt lat="47.92822" lon="6.92448">
        <ele>1109</ele>
        <time>2016-10-09T10:40:11.823Z</time>
      </trkpt>
      <trkpt lat="47.92821" lon="6.92446">
        <ele>1109</ele>
        <time>2016-10-09T10:41:11.824Z</time>
      </trkpt>
      <trkpt lat="47.92819" lon="6.92447">
        <ele>1109</ele>
        <time>2016-10-09T10:42:11.825Z</time>
      </trkpt>
      <trkpt lat="47.92821" lon="6.92444">
        <ele>1110</ele>
        <time>2016-10-09T10:43:11.825Z</time>
      </trkpt>
      <trkpt lat="47.92821" lon="6.92444">
        <ele>1110</ele>
        <time>2016-10-09T10:44:12.821Z</time>
      </trkpt>
      <trkpt lat="47.92824" lon="6.92442">
        <ele>1110</ele>
        <time>2016-10-09T10:45:13.823Z</time>
      </trkpt>
      <trkpt lat="47.92831" lon="6.92439">
        <ele>1111</ele>
        <time>2016-10-09T10:46:14.816Z</time>
      </trkpt>
      <trkpt lat="47.92821" lon="6.92443">
        <ele>1110</ele>
        <time>2016-10-09T10:47:14.821Z</time>
      </trkpt>
      <trkpt lat="47.9282" lon="6.92446">
        <ele>1109</ele>
        <time>2016-10-09T10:48:14.831Z</time>
      </trkpt>
      <trkpt lat="47.9282" lon="6.92446">
        <ele>1109</ele>
        <time>2016-10-09T10:49:15.823Z</time>
      </trkpt>
      <trkpt lat="47.9282" lon="6.92446">
        <ele>1109</ele>
        <time>2016-10-09T10:50:16.821Z</time>
      </trkpt>
      <trkpt lat="47.9282" lon="6.92446">
        <ele>1109</ele>
        <time>2016-10-09T10:51:17.815Z</time>
      </trkpt>
      <trkpt lat="47.92819" lon="6.92447">
        <ele>1109</ele>
        <time>2016-10-09T10:52:17.821Z</time>
      </trkpt>
      <trkpt lat="47.92819" lon="6.92447">
        <ele>1109</ele>
        <time>2016-10-09T10:53:18.815Z</time>
      </trkpt>
      <trkpt lat="47.92819" lon="6.92447">
        <ele>1109</ele>
        <time>2016-10-09T10:54:18.823Z</time>
      </trkpt>
      <trkpt lat="47.92822" lon="6.92444">
        <ele>1110</ele>
        <time>2016-10-09T10:55:18.823Z</time>
      </trkpt>
      <trkpt lat="47.92822" lon="6.92438">
        <ele>1111</ele>
        <time>2016-10-09T10:56:18.84Z</time>
      </trkpt>
      <trkpt lat="47.92828" lon="6.92451">
        <ele>1109</ele>
        <time>2016-10-09T10:57:19.824Z</time>
      </trkpt>
      <trkpt lat="47.92829" lon="6.92447">
        <ele>1110</ele>
        <time>2016-10-09T10:58:20.824Z</time>
      </trkpt>
      <trkpt lat="47.9283" lon="6.92446">
        <ele>1110</ele>
        <time>2016-10-09T10:59:21.821Z</time>
      </trkpt>
      <trkpt lat="47.92827" lon="6.92441">
        <ele>1111</ele>
        <time>2016-10-09T11:00:22.814Z</time>
      </trkpt>
      <trkpt lat="47.92814" lon="6.92438">
        <ele>1109</ele>
        <time>2016-10-09T11:00:50.811Z</time>
      </trkpt>
      <trkpt lat="47.92771" lon="6.92412">
        <ele>1104</ele>
        <time>2016-10-09T11:01:34.826Z</time>
      </trkpt>
      <trkpt lat="47.92723" lon="6.92356">
        <ele>1086</ele>
        <time>2016-10-09T11:02:28.815Z</time>
      </trkpt>
      <trkpt lat="47.92686" lon="6.92322">
        <ele>1075</ele>
        <time>2016-10-09T11:03:28.82Z</time>
      </trkpt>
      <trkpt lat="47.92669" lon="6.92323">
        <ele>1074</ele>
        <time>2016-10-09T11:04:00.813Z</time>
      </trkpt>
      <trkpt lat="47.92672" lon="6.92296">
        <ele>1074</ele>
        <time>2016-10-09T11:05:00.815Z</time>
      </trkpt>
      <trkpt lat="47.92674" lon="6.92279">
        <ele>1072</ele>
        <time>2016-10-09T11:06:00.823Z</time>
      </trkpt>
      <trkpt lat="47.92648" lon="6.92259">
        <ele>1058</ele>
        <time>2016-10-09T11:06:29.813Z</time>
      </trkpt>
      <trkpt lat="47.92636" lon="6.92242">
        <ele>1051</ele>
        <time>2016-10-09T11:06:45.82Z</time>
      </trkpt>
      <trkpt lat="47.92587" lon="6.92219">
        <ele>1044</ele>
        <time>2016-10-09T11:07:42.818Z</time>
      </trkpt>
      <trkpt lat="47.92591" lon="6.92175">
        <ele>1037</ele>
        <time>2016-10-09T11:08:42.821Z</time>
      </trkpt>
      <trkpt lat="47.92627" lon="6.92152">
        <ele>1032</ele>
        <time>2016-10-09T11:09:43.828Z</time>
      </trkpt>
      <trkpt lat="47.92642" lon="6.92144">
        <ele>1033</ele>
        <time>2016-10-09T11:09:56.815Z</time>
      </trkpt>
      <trkpt lat="47.92662" lon="6.92142">
        <ele>1035</ele>
        <time>2016-10-09T11:10:05.814Z</time>
      </trkpt>
      <trkpt lat="47.92653" lon="6.92117">
        <ele>1029</ele>
        <time>2016-10-09T11:10:26.814Z</time>
      </trkpt>
      <trkpt lat="47.92618" lon="6.92086">
        <ele>1026</ele>
        <time>2016-10-09T11:11:04.815Z</time>
      </trkpt>
      <trkpt lat="47.92586" lon="6.92077">
        <ele>1016</ele>
        <time>2016-10-09T11:11:30.815Z</time>
      </trkpt>
      <trkpt lat="47.92573" lon="6.92069">
        <ele>1008</ele>
        <time>2016-10-09T11:11:35.815Z</time>
      </trkpt>
      <trkpt lat="47.92584" lon="6.92059">
        <ele>1011</ele>
        <time>2016-10-09T11:12:19.811Z</time>
      </trkpt>
      <trkpt lat="47.92599" lon="6.92038">
        <ele>1007</ele>
        <time>2016-10-09T11:12:48.813Z</time>
      </trkpt>
      <trkpt lat="47.92551" lon="6.91997">
        <ele>987</ele>
        <time>2016-10-09T11:13:23.814Z</time>
      </trkpt>
      <trkpt lat="47.9249" lon="6.9196">
        <ele>977</ele>
        <time>2016-10-09T11:14:15.823Z</time>
      </trkpt>
      <trkpt lat="47.92503" lon="6.9197">
        <ele>986</ele>
        <time>2016-10-09T11:14:55.815Z</time>
      </trkpt>
      <trkpt lat="47.92516" lon="6.91963">
        <ele>985</ele>
        <time>2016-10-09T11:15:04.813Z</time>
      </trkpt>
      <trkpt lat="47.92537" lon="6.91913">
        <ele>972</ele>
        <time>2016-10-09T11:15:47.814Z</time>
      </trkpt>
      <trkpt lat="47.92503" lon="6.91866">
        <ele>965</ele>
        <time>2016-10-09T11:16:26.814Z</time>
      </trkpt>
      <trkpt lat="47.92469" lon="6.91835">
        <ele>958</ele>
        <time>2016-10-09T11:16:56.813Z</time>
      </trkpt>
      <trkpt lat="47.92457" lon="6.91818">
        <ele>947</ele>
        <time>2016-10-09T11:17:17.813Z</time>
      </trkpt>
      <trkpt lat="47.92393" lon="6.91772">
        <ele>932</ele>
        <time>2016-10-09T11:18:13.814Z</time>
      </trkpt>
      <trkpt lat="47.92369" lon="6.91738">
        <ele>918</ele>
        <time>2016-10-09T11:18:50.815Z</time>
      </trkpt>
      <trkpt lat="47.92354" lon="6.91739">
        <ele>916</ele>
        <time>2016-10-09T11:18:57.815Z</time>
      </trkpt>
      <trkpt lat="47.92387" lon="6.91727">
        <ele>919</ele>
        <time>2016-10-09T11:19:43.813Z</time>
      </trkpt>
      <trkpt lat="47.92413" lon="6.91721">
        <ele>920</ele>
        <time>2016-10-09T11:20:06.813Z</time>
      </trkpt>
      <trkpt lat="47.92404" lon="6.91704">
        <ele>917</ele>
        <time>2016-10-09T11:20:13.811Z</time>
      </trkpt>
      <trkpt lat="47.92365" lon="6.91662">
        <ele>901</ele>
        <time>2016-10-09T11:20:59.814Z</time>
      </trkpt>
      <trkpt lat="47.92347" lon="6.91666">
        <ele>900</ele>
        <time>2016-10-09T11:21:14.823Z</time>
      </trkpt>
      <trkpt lat="47.92333" lon="6.91668">
        <ele>901</ele>
        <time>2016-10-09T11:21:22.814Z</time>
      </trkpt>
      <trkpt lat="47.92288" lon="6.91696">
        <ele>901</ele>
        <time>2016-10-09T11:21:57.815Z</time>
      </trkpt>
      <trkpt lat="47.92268" lon="6.91711">
        <ele>900</ele>
        <time>2016-10-09T11:22:13.82Z</time>
      </trkpt>
      <trkpt lat="47.92248" lon="6.91708">
        <ele>900</ele>
        <time>2016-10-09T11:22:21.813Z</time>
      </trkpt>
      <trkpt lat="47.92266" lon="6.91728">
        <ele>900</ele>
        <time>2016-10-09T11:23:21.813Z</time>
      </trkpt>
      <trkpt lat="47.92251" lon="6.91724">
        <ele>899</ele>
        <time>2016-10-09T11:24:21.82Z</time>
      </trkpt>
      <trkpt lat="47.92213" lon="6.91749">
        <ele>901</ele>
        <time>2016-10-09T11:25:17.831Z</time>
      </trkpt>
      <trkpt lat="47.92203" lon="6.91763">
        <ele>899</ele>
        <time>2016-10-09T11:25:27.82Z</time>
      </trkpt>
      <trkpt lat="47.92178" lon="6.91788">
        <ele>900</ele>
        <time>2016-10-09T11:26:06.816Z</time>
      </trkpt>
      <trkpt lat="47.92163" lon="6.91791">
        <ele>903</ele>
        <time>2016-10-09T11:26:19.813Z</time>
      </trkpt>
      <trkpt lat="47.9214" lon="6.91798">
        <ele>903</ele>
        <time>2016-10-09T11:26:40.82Z</time>
      </trkpt>
      <trkpt lat="47.92098" lon="6.91799">
        <ele>904</ele>
        <time>2016-10-09T11:27:17.815Z</time>
      </trkpt>
      <trkpt lat="47.92071" lon="6.91821">
        <ele>908</ele>
        <time>2016-10-09T11:27:36.811Z</time>
      </trkpt>
      <trkpt lat="47.92057" lon="6.9183">
        <ele>910</ele>
        <time>2016-10-09T11:27:48.815Z</time>
      </trkpt>
      <trkpt lat="47.9202" lon="6.9186">
        <ele>905</ele>
        <time>2016-10-09T11:28:20.811Z</time>
      </trkpt>
      <trkpt lat="47.92008" lon="6.91874">
        <ele>904</ele>
        <time>2016-10-09T11:28:32.814Z</time>
      </trkpt>
      <trkpt lat="47.92001" lon="6.91891">
        <ele>903</ele>
        <time>2016-10-09T11:28:43.814Z</time>
      </trkpt>
      <trkpt lat="47.91976" lon="6.91917">
        <ele>915</ele>
        <time>2016-10-09T11:29:25.813Z</time>
      </trkpt>
      <trkpt lat="47.91951" lon="6.91955">
        <ele>914</ele>
        <time>2016-10-09T11:30:25.814Z</time>
      </trkpt>
      <trkpt lat="47.91905" lon="6.91955">
        <ele>933</ele>
        <time>2016-10-09T11:31:19.814Z</time>
      </trkpt>
      <trkpt lat="47.91859" lon="6.91968">
        <ele>938</ele>
        <time>2016-10-09T11:32:04.814Z</time>
      </trkpt>
      <trkpt lat="47.91845" lon="6.92032">
        <ele>942</ele>
        <time>2016-10-09T11:32:56.815Z</time>
      </trkpt>
      <trkpt lat="47.91857" lon="6.92101">
        <ele>950</ele>
        <time>2016-10-09T11:33:56.813Z</time>
      </trkpt>
      <trkpt lat="47.91841" lon="6.92132">
        <ele>953</ele>
        <time>2016-10-09T11:34:36.813Z</time>
      </trkpt>
      <trkpt lat="47.91822" lon="6.92178">
        <ele>967</ele>
        <time>2016-10-09T11:35:36.814Z</time>
      </trkpt>
      <trkpt lat="47.91815" lon="6.92198">
        <ele>970</ele>
        <time>2016-10-09T11:35:46.816Z</time>
      </trkpt>
      <trkpt lat="47.91801" lon="6.92262">
        <ele>979</ele>
        <time>2016-10-09T11:36:30.815Z</time>
      </trkpt>
      <trkpt lat="47.91795" lon="6.92285">
        <ele>980</ele>
        <time>2016-10-09T11:36:49.811Z</time>
      </trkpt>
      <trkpt lat="47.91757" lon="6.92279">
        <ele>980</ele>
        <time>2016-10-09T11:37:36.814Z</time>
      </trkpt>
      <trkpt lat="47.9173" lon="6.92308">
        <ele>985</ele>
        <time>2016-10-09T11:38:00.813Z</time>
      </trkpt>
      <trkpt lat="47.91723" lon="6.92328">
        <ele>986</ele>
        <time>2016-10-09T11:38:14.815Z</time>
      </trkpt>
      <trkpt lat="47.91746" lon="6.92359">
        <ele>997</ele>
        <time>2016-10-09T11:38:42.811Z</time>
      </trkpt>
      <trkpt lat="47.91766" lon="6.92419">
        <ele>1005</ele>
        <time>2016-10-09T11:39:34.815Z</time>
      </trkpt>
      <trkpt lat="47.91787" lon="6.9248">
        <ele>1010</ele>
        <time>2016-10-09T11:40:25.813Z</time>
      </trkpt>
      <trkpt lat="47.91808" lon="6.92536">
        <ele>1021</ele>
        <time>2016-10-09T11:41:25.814Z</time>
      </trkpt>
      <trkpt lat="47.91795" lon="6.92532">
        <ele>1023</ele>
        <time>2016-10-09T11:42:05.813Z</time>
      </trkpt>
      <trkpt lat="47.91778" lon="6.92552">
        <ele>1029</ele>
        <time>2016-10-09T11:43:05.814Z</time>
      </trkpt>
      <trkpt lat="47.91765" lon="6.92586">
        <ele>1044</ele>
        <time>2016-10-09T11:44:05.815Z</time>
      </trkpt>
      <trkpt lat="47.91756" lon="6.92609">
        <ele>1043</ele>
        <time>2016-10-09T11:44:33.818Z</time>
      </trkpt>
      <trkpt lat="47.91712" lon="6.92647">
        <ele>1063</ele>
        <time>2016-10-09T11:45:31.816Z</time>
      </trkpt>
      <trkpt lat="47.91668" lon="6.92666">
        <ele>1073</ele>
        <time>2016-10-09T11:46:24.815Z</time>
      </trkpt>
      <trkpt lat="47.91625" lon="6.9269">
        <ele>1080</ele>
        <time>2016-10-09T11:47:20.816Z</time>
      </trkpt>
      <trkpt lat="47.91585" lon="6.92705">
        <ele>1084</ele>
        <time>2016-10-09T11:48:20.816Z</time>
      </trkpt>
      <trkpt lat="47.9154" lon="6.92714">
        <ele>1097</ele>
        <time>2016-10-09T11:49:10.819Z</time>
      </trkpt>
      <trkpt lat="47.91493" lon="6.92712">
        <ele>1106</ele>
        <time>2016-10-09T11:50:02.815Z</time>
      </trkpt>
      <trkpt lat="47.91448" lon="6.92704">
        <ele>1108</ele>
        <time>2016-10-09T11:50:39.818Z</time>
      </trkpt>
      <trkpt lat="47.91418" lon="6.92697">
        <ele>1109</ele>
        <time>2016-10-09T11:51:06.818Z</time>
      </trkpt>
      <trkpt lat="47.91377" lon="6.92693">
        <ele>1121</ele>
        <time>2016-10-09T11:51:47.813Z</time>
      </trkpt>
      <trkpt lat="47.91333" lon="6.92712">
        <ele>1123</ele>
        <time>2016-10-09T11:52:44.82Z</time>
      </trkpt>
      <trkpt lat="47.91312" lon="6.92706">
        <ele>1142</ele>
        <time>2016-10-09T11:53:45.815Z</time>
      </trkpt>
      <trkpt lat="47.91275" lon="6.92724">
        <ele>1149</ele>
        <time>2016-10-09T11:54:46.816Z</time>
      </trkpt>
      <trkpt lat="47.91262" lon="6.92715">
        <ele>1151</ele>
        <time>2016-10-09T11:55:06.826Z</time>
      </trkpt>
      <trkpt lat="47.9122" lon="6.92737">
        <ele>1169</ele>
        <time>2016-10-09T11:56:01.81Z</time>
      </trkpt>
      <trkpt lat="47.91164" lon="6.92779">
        <ele>1185</ele>
        <time>2016-10-09T11:57:01.819Z</time>
      </trkpt>
      <trkpt lat="47.91121" lon="6.92811">
        <ele>1189</ele>
        <time>2016-10-09T11:57:54.819Z</time>
      </trkpt>
      <trkpt lat="47.91093" lon="6.92846">
        <ele>1192</ele>
        <time>2016-10-09T11:58:54.819Z</time>
      </trkpt>
      <trkpt lat="47.91064" lon="6.92867">
        <ele>1204</ele>
        <time>2016-10-09T11:59:43.81Z</time>
      </trkpt>
      <trkpt lat="47.91019" lon="6.92876">
        <ele>1208</ele>
        <time>2016-10-09T12:00:27.816Z</time>
      </trkpt>
      <trkpt lat="47.91002" lon="6.92884">
        <ele>1209</ele>
        <time>2016-10-09T12:00:44.818Z</time>
      </trkpt>
      <trkpt lat="47.90989" lon="6.92882">
        <ele>1207</ele>
        <time>2016-10-09T12:01:44.821Z</time>
      </trkpt>
      <trkpt lat="47.90988" lon="6.92882">
        <ele>1207</ele>
        <time>2016-10-09T12:02:44.825Z</time>
      </trkpt>
      <trkpt lat="47.90986" lon="6.92877">
        <ele>1207</ele>
        <time>2016-10-09T12:03:45.818Z</time>
      </trkpt>
      <trkpt lat="47.90988" lon="6.92879">
        <ele>1207</ele>
        <time>2016-10-09T12:04:45.825Z</time>
      </trkpt>
      <trkpt lat="47.90987" lon="6.92877">
        <ele>1207</ele>
        <time>2016-10-09T12:05:46.815Z</time>
      </trkpt>
      <trkpt lat="47.90985" lon="6.92876">
        <ele>1207</ele>
        <time>2016-10-09T12:06:46.815Z</time>
      </trkpt>
      <trkpt lat="47.90985" lon="6.92876">
        <ele>1207</ele>
        <time>2016-10-09T12:07:46.818Z</time>
      </trkpt>
      <trkpt lat="47.90987" lon="6.92878">
        <ele>1207</ele>
        <time>2016-10-09T12:08:47.813Z</time>
      </trkpt>
      <trkpt lat="47.90985" lon="6.92881">
        <ele>1207</ele>
        <time>2016-10-09T12:09:48.814Z</time>
      </trkpt>
      <trkpt lat="47.90986" lon="6.92879">
        <ele>1207</ele>
        <time>2016-10-09T12:10:48.815Z</time>
      </trkpt>
      <trkpt lat="47.90987" lon="6.92877">
        <ele>1207</ele>
        <time>2016-10-09T12:11:48.815Z</time>
      </trkpt>
      <trkpt lat="47.90985" lon="6.92878">
        <ele>1207</ele>
        <time>2016-10-09T12:12:49.813Z</time>
      </trkpt>
      <trkpt lat="47.90988" lon="6.92877">
        <ele>1207</ele>
        <time>2016-10-09T12:13:49.815Z</time>
      </trkpt>
      <trkpt lat="47.90988" lon="6.92878">
        <ele>1207</ele>
        <time>2016-10-09T12:14:49.815Z</time>
      </trkpt>
      <trkpt lat="47.90988" lon="6.92878">
        <ele>1207</ele>
        <time>2016-10-09T12:15:49.816Z</time>
      </trkpt>
      <trkpt lat="47.90971" lon="6.92859">
        <ele>1207</ele>
        <time>2016-10-09T12:16:39.818Z</time>
      </trkpt>
      <trkpt lat="47.90957" lon="6.92854">
        <ele>1205</ele>
        <time>2016-10-09T12:16:49.81Z</time>
      </trkpt>
      <trkpt lat="47.90945" lon="6.92844">
        <ele>1204</ele>
        <time>2016-10-09T12:17:03.813Z</time>
      </trkpt>
      <trkpt lat="47.90926" lon="6.92836">
        <ele>1201</ele>
        <time>2016-10-09T12:17:25.813Z</time>
      </trkpt>
      <trkpt lat="47.90917" lon="6.92814">
        <ele>1202</ele>
        <time>2016-10-09T12:17:39.814Z</time>
      </trkpt>
      <trkpt lat="47.90899" lon="6.92771">
        <ele>1190</ele>
        <time>2016-10-09T12:18:07.811Z</time>
      </trkpt>
      <trkpt lat="47.90876" lon="6.92749">
        <ele>1186</ele>
        <time>2016-10-09T12:18:34.815Z</time>
      </trkpt>
      <trkpt lat="47.90865" lon="6.92737">
        <ele>1185</ele>
        <time>2016-10-09T12:18:44.814Z</time>
      </trkpt>
      <trkpt lat="47.90851" lon="6.92733">
        <ele>1184</ele>
        <time>2016-10-09T12:18:56.811Z</time>
      </trkpt>
      <trkpt lat="47.90837" lon="6.92725">
        <ele>1183</ele>
        <time>2016-10-09T12:19:07.816Z</time>
      </trkpt>
      <trkpt lat="47.90825" lon="6.92714">
        <ele>1178</ele>
        <time>2016-10-09T12:19:17.814Z</time>
      </trkpt>
      <trkpt lat="47.90812" lon="6.92707">
        <ele>1177</ele>
        <time>2016-10-09T12:19:27.81Z</time>
      </trkpt>
      <trkpt lat="47.9079" lon="6.92701">
        <ele>1176</ele>
        <time>2016-10-09T12:19:45.814Z</time>
      </trkpt>
      <trkpt lat="47.90776" lon="6.92695">
        <ele>1176</ele>
        <time>2016-10-09T12:19:54.815Z</time>
      </trkpt>
      <trkpt lat="47.90736" lon="6.92675">
        <ele>1172</ele>
        <time>2016-10-09T12:20:25.814Z</time>
      </trkpt>
      <trkpt lat="47.90721" lon="6.9266">
        <ele>1177</ele>
        <time>2016-10-09T12:20:40.82Z</time>
      </trkpt>
      <trkpt lat="47.907" lon="6.92649">
        <ele>1176</ele>
        <time>2016-10-09T12:20:58.814Z</time>
      </trkpt>
      <trkpt lat="47.90688" lon="6.92636">
        <ele>1177</ele>
        <time>2016-10-09T12:21:10.815Z</time>
      </trkpt>
      <trkpt lat="47.90669" lon="6.92624">
        <ele>1178</ele>
        <time>2016-10-09T12:21:26.816Z</time>
      </trkpt>
      <trkpt lat="47.90648" lon="6.92606">
        <ele>1176</ele>
        <time>2016-10-09T12:21:46.816Z</time>
      </trkpt>
      <trkpt lat="47.90625" lon="6.92592">
        <ele>1175</ele>
        <time>2016-10-09T12:22:05.813Z</time>
      </trkpt>
      <trkpt lat="47.90614" lon="6.92581">
        <ele>1176</ele>
        <time>2016-10-09T12:22:16.814Z</time>
      </trkpt>
      <trkpt lat="47.90606" lon="6.92564">
        <ele>1175</ele>
        <time>2016-10-09T12:23:12.815Z</time>
      </trkpt>
      <trkpt lat="47.90599" lon="6.92537">
        <ele>1173</ele>
        <time>2016-10-09T12:23:27.814Z</time>
      </trkpt>
      <trkpt lat="47.90592" lon="6.92519">
        <ele>1171</ele>
        <time>2016-10-09T12:23:35.82Z</time>
      </trkpt>
      <trkpt lat="47.9059" lon="6.92493">
        <ele>1165</ele>
        <time>2016-10-09T12:23:50.83Z</time>
      </trkpt>
      <trkpt lat="47.90585" lon="6.92474">
        <ele>1163</ele>
        <time>2016-10-09T12:23:59.818Z</time>
      </trkpt>
      <trkpt lat="47.90574" lon="6.92406">
        <ele>1146</ele>
        <time>2016-10-09T12:24:35.821Z</time>
      </trkpt>
      <trkpt lat="47.90551" lon="6.92346">
        <ele>1137</ele>
        <time>2016-10-09T12:25:13.815Z</time>
      </trkpt>
      <trkpt lat="47.90523" lon="6.92293">
        <ele>1137</ele>
        <time>2016-10-09T12:25:52.82Z</time>
      </trkpt>
      <trkpt lat="47.90519" lon="6.92273">
        <ele>1139</ele>
        <time>2016-10-09T12:26:03.816Z</time>
      </trkpt>
      <trkpt lat="47.90499" lon="6.92237">
        <ele>1141</ele>
        <time>2016-10-09T12:26:24.82Z</time>
      </trkpt>
      <trkpt lat="47.90484" lon="6.92215">
        <ele>1139</ele>
        <time>2016-10-09T12:26:39.82Z</time>
      </trkpt>
      <trkpt lat="47.90446" lon="6.92147">
        <ele>1142</ele>
        <time>2016-10-09T12:27:33.816Z</time>
      </trkpt>
      <trkpt lat="47.90437" lon="6.92094">
        <ele>1142</ele>
        <time>2016-10-09T12:28:06.815Z</time>
      </trkpt>
      <trkpt lat="47.90431" lon="6.92065">
        <ele>1143</ele>
        <time>2016-10-09T12:28:23.815Z</time>
      </trkpt>
      <trkpt lat="47.90422" lon="6.92049">
        <ele>1144</ele>
        <time>2016-10-09T12:28:33.813Z</time>
      </trkpt>
      <trkpt lat="47.90414" lon="6.92024">
        <ele>1139</ele>
        <time>2016-10-09T12:28:54.814Z</time>
      </trkpt>
      <trkpt lat="47.90408" lon="6.92005">
        <ele>1145</ele>
        <time>2016-10-09T12:29:08.815Z</time>
      </trkpt>
      <trkpt lat="47.90392" lon="6.91966">
        <ele>1147</ele>
        <time>2016-10-09T12:29:42.819Z</time>
      </trkpt>
      <trkpt lat="47.90379" lon="6.9195">
        <ele>1146</ele>
        <time>2016-10-09T12:29:57.815Z</time>
      </trkpt>
      <trkpt lat="47.90377" lon="6.91923">
        <ele>1148</ele>
        <time>2016-10-09T12:30:19.811Z</time>
      </trkpt>
      <trkpt lat="47.90367" lon="6.91909">
        <ele>1152</ele>
        <time>2016-10-09T12:30:30.82Z</time>
      </trkpt>
      <trkpt lat="47.90344" lon="6.91859">
        <ele>1154</ele>
        <time>2016-10-09T12:31:04.821Z</time>
      </trkpt>
      <trkpt lat="47.90336" lon="6.91841">
        <ele>1156</ele>
        <time>2016-10-09T12:31:19.815Z</time>
      </trkpt>
      <trkpt lat="47.90329" lon="6.91823">
        <ele>1157</ele>
        <time>2016-10-09T12:31:32.814Z</time>
      </trkpt>
      <trkpt lat="47.90321" lon="6.91803">
        <ele>1159</ele>
        <time>2016-10-09T12:31:49.813Z</time>
      </trkpt>
      <trkpt lat="47.90312" lon="6.91786">
        <ele>1160</ele>
        <time>2016-10-09T12:32:02.815Z</time>
      </trkpt>
      <trkpt lat="47.90299" lon="6.91766">
        <ele>1161</ele>
        <time>2016-10-09T12:32:17.825Z</time>
      </trkpt>
      <trkpt lat="47.90278" lon="6.91749">
        <ele>1168</ele>
        <time>2016-10-09T12:32:40.815Z</time>
      </trkpt>
      <trkpt lat="47.90245" lon="6.91722">
        <ele>1170</ele>
        <time>2016-10-09T12:33:15.814Z</time>
      </trkpt>
      <trkpt lat="47.90221" lon="6.9169">
        <ele>1172</ele>
        <time>2016-10-09T12:33:50.82Z</time>
      </trkpt>
      <trkpt lat="47.90214" lon="6.91679">
        <ele>1173</ele>
        <time>2016-10-09T12:34:50.828Z</time>
      </trkpt>
      <trkpt lat="47.90218" lon="6.91676">
        <ele>1173</ele>
        <time>2016-10-09T12:35:51.815Z</time>
      </trkpt>
      <trkpt lat="47.90217" lon="6.91675">
        <ele>1173</ele>
        <time>2016-10-09T12:36:52.823Z</time>
      </trkpt>
      <trkpt lat="47.90219" lon="6.91677">
        <ele>1173</ele>
        <time>2016-10-09T12:37:52.831Z</time>
      </trkpt>
      <trkpt lat="47.90219" lon="6.91677">
        <ele>1173</ele>
        <time>2016-10-09T12:38:53.814Z</time>
      </trkpt>
      <trkpt lat="47.90219" lon="6.91677">
        <ele>1173</ele>
        <time>2016-10-09T12:39:53.815Z</time>
      </trkpt>
      <trkpt lat="47.90219" lon="6.91677">
        <ele>1173</ele>
        <time>2016-10-09T12:40:53.815Z</time>
      </trkpt>
      <trkpt lat="47.90219" lon="6.91678">
        <ele>1173</ele>
        <time>2016-10-09T12:41:54.814Z</time>
      </trkpt>
      <trkpt lat="47.90219" lon="6.91678">
        <ele>1173</ele>
        <time>2016-10-09T12:42:54.816Z</time>
      </trkpt>
      <trkpt lat="47.90217" lon="6.91676">
        <ele>1173</ele>
        <time>2016-10-09T12:43:54.819Z</time>
      </trkpt>
      <trkpt lat="47.90217" lon="6.91676">
        <ele>1173</ele>
        <time>2016-10-09T12:44:54.824Z</time>
      </trkpt>
      <trkpt lat="47.90217" lon="6.91675">
        <ele>1173</ele>
        <time>2016-10-09T12:45:55.813Z</time>
      </trkpt>
      <trkpt lat="47.90218" lon="6.91673">
        <ele>1173</ele>
        <time>2016-10-09T12:46:55.829Z</time>
      </trkpt>
      <trkpt lat="47.90211" lon="6.91655">
        <ele>1173</ele>
        <time>2016-10-09T12:47:55.82Z</time>
      </trkpt>
      <trkpt lat="47.90207" lon="6.91634">
        <ele>1172</ele>
        <time>2016-10-09T12:48:15.814Z</time>
      </trkpt>
      <trkpt lat="47.9021" lon="6.91598">
        <ele>1170</ele>
        <time>2016-10-09T12:48:46.818Z</time>
      </trkpt>
      <trkpt lat="47.9021" lon="6.91567">
        <ele>1158</ele>
        <time>2016-10-09T12:49:04.815Z</time>
      </trkpt>
      <trkpt lat="47.90202" lon="6.91528">
        <ele>1153</ele>
        <time>2016-10-09T12:49:28.815Z</time>
      </trkpt>
      <trkpt lat="47.90196" lon="6.91509">
        <ele>1151</ele>
        <time>2016-10-09T12:49:43.815Z</time>
      </trkpt>
      <trkpt lat="47.90198" lon="6.91489">
        <ele>1140</ele>
        <time>2016-10-09T12:50:25.815Z</time>
      </trkpt>
      <trkpt lat="47.90212" lon="6.91477">
        <ele>1139</ele>
        <time>2016-10-09T12:50:36.81Z</time>
      </trkpt>
      <trkpt lat="47.90222" lon="6.91461">
        <ele>1138</ele>
        <time>2016-10-09T12:50:47.82Z</time>
      </trkpt>
      <trkpt lat="47.90234" lon="6.91446">
        <ele>1137</ele>
        <time>2016-10-09T12:50:59.82Z</time>
      </trkpt>
      <trkpt lat="47.90243" lon="6.91429">
        <ele>1136</ele>
        <time>2016-10-09T12:51:13.815Z</time>
      </trkpt>
      <trkpt lat="47.90247" lon="6.91455">
        <ele>1138</ele>
        <time>2016-10-09T12:52:10.814Z</time>
      </trkpt>
      <trkpt lat="47.90258" lon="6.9147">
        <ele>1134</ele>
        <time>2016-10-09T12:52:20.814Z</time>
      </trkpt>
      <trkpt lat="47.90267" lon="6.91489">
        <ele>1136</ele>
        <time>2016-10-09T12:52:32.813Z</time>
      </trkpt>
      <trkpt lat="47.90284" lon="6.91512">
        <ele>1144</ele>
        <time>2016-10-09T12:52:47.811Z</time>
      </trkpt>
      <trkpt lat="47.90286" lon="6.91531">
        <ele>1145</ele>
        <time>2016-10-09T12:53:02.813Z</time>
      </trkpt>
      <trkpt lat="47.90294" lon="6.9155">
        <ele>1146</ele>
        <time>2016-10-09T12:53:15.811Z</time>
      </trkpt>
      <trkpt lat="47.90309" lon="6.91563">
        <ele>1146</ele>
        <time>2016-10-09T12:53:28.813Z</time>
      </trkpt>
      <trkpt lat="47.90376" lon="6.91624">
        <ele>1151</ele>
        <time>2016-10-09T12:54:28.814Z</time>
      </trkpt>
      <trkpt lat="47.90395" lon="6.91645">
        <ele>1152</ele>
        <time>2016-10-09T12:54:46.82Z</time>
      </trkpt>
      <trkpt lat="47.90404" lon="6.91644">
        <ele>1152</ele>
        <time>2016-10-09T12:55:47.819Z</time>
      </trkpt>
      <trkpt lat="47.90416" lon="6.9166">
        <ele>1154</ele>
        <time>2016-10-09T12:56:36.811Z</time>
      </trkpt>
      <trkpt lat="47.90429" lon="6.91682">
        <ele>1148</ele>
        <time>2016-10-09T12:56:52.815Z</time>
      </trkpt>
      <trkpt lat="47.90434" lon="6.91703">
        <ele>1145</ele>
        <time>2016-10-09T12:57:03.815Z</time>
      </trkpt>
      <trkpt lat="47.90436" lon="6.91737">
        <ele>1145</ele>
        <time>2016-10-09T12:57:23.81Z</time>
      </trkpt>
      <trkpt lat="47.9043" lon="6.91795">
        <ele>1140</ele>
        <time>2016-10-09T12:57:54.816Z</time>
      </trkpt>
      <trkpt lat="47.90427" lon="6.9182">
        <ele>1142</ele>
        <time>2016-10-09T12:58:06.835Z</time>
      </trkpt>
      <trkpt lat="47.90432" lon="6.91839">
        <ele>1143</ele>
        <time>2016-10-09T12:58:17.81Z</time>
      </trkpt>
      <trkpt lat="47.90446" lon="6.91926">
        <ele>1144</ele>
        <time>2016-10-09T12:59:07.82Z</time>
      </trkpt>
      <trkpt lat="47.90457" lon="6.9194">
        <ele>1142</ele>
        <time>2016-10-09T12:59:16.811Z</time>
      </trkpt>
      <trkpt lat="47.90463" lon="6.9197">
        <ele>1142</ele>
        <time>2016-10-09T12:59:31.813Z</time>
      </trkpt>
      <trkpt lat="47.90497" lon="6.92075">
        <ele>1143</ele>
        <time>2016-10-09T13:00:31.815Z</time>
      </trkpt>
      <trkpt lat="47.90512" lon="6.92096">
        <ele>1138</ele>
        <time>2016-10-09T13:00:41.814Z</time>
      </trkpt>
      <trkpt lat="47.90519" lon="6.92116">
        <ele>1136</ele>
        <time>2016-10-09T13:00:52.815Z</time>
      </trkpt>
      <trkpt lat="47.90536" lon="6.92143">
        <ele>1135</ele>
        <time>2016-10-09T13:01:12.816Z</time>
      </trkpt>
      <trkpt lat="47.9057" lon="6.9219">
        <ele>1135</ele>
        <time>2016-10-09T13:01:46.856Z</time>
      </trkpt>
      <trkpt lat="47.9058" lon="6.92203">
        <ele>1137</ele>
        <time>2016-10-09T13:02:06.81Z</time>
      </trkpt>
      <trkpt lat="47.90619" lon="6.92268">
        <ele>1131</ele>
        <time>2016-10-09T13:02:53.815Z</time>
      </trkpt>
      <trkpt lat="47.90659" lon="6.92298">
        <ele>1130</ele>
        <time>2016-10-09T13:03:31.815Z</time>
      </trkpt>
      <trkpt lat="47.9072" lon="6.92333">
        <ele>1133</ele>
        <time>2016-10-09T13:04:15.815Z</time>
      </trkpt>
      <trkpt lat="47.90734" lon="6.92337">
        <ele>1130</ele>
        <time>2016-10-09T13:04:28.819Z</time>
      </trkpt>
      <trkpt lat="47.90753" lon="6.92333">
        <ele>1122</ele>
        <time>2016-10-09T13:04:42.82Z</time>
      </trkpt>
      <trkpt lat="47.90782" lon="6.92353">
        <ele>1124</ele>
        <time>2016-10-09T13:05:00.813Z</time>
      </trkpt>
      <trkpt lat="47.90794" lon="6.92362">
        <ele>1124</ele>
        <time>2016-10-09T13:05:11.816Z</time>
      </trkpt>
      <trkpt lat="47.90836" lon="6.92405">
        <ele>1121</ele>
        <time>2016-10-09T13:05:51.818Z</time>
      </trkpt>
      <trkpt lat="47.90863" lon="6.92412">
        <ele>1117</ele>
        <time>2016-10-09T13:06:12.816Z</time>
      </trkpt>
      <trkpt lat="47.90881" lon="6.9242">
        <ele>1127</ele>
        <time>2016-10-09T13:06:26.818Z</time>
      </trkpt>
      <trkpt lat="47.90906" lon="6.92422">
        <ele>1121</ele>
        <time>2016-10-09T13:06:44.815Z</time>
      </trkpt>
      <trkpt lat="47.90964" lon="6.92416">
        <ele>1107</ele>
        <time>2016-10-09T13:07:22.82Z</time>
      </trkpt>
      <trkpt lat="47.90978" lon="6.92405">
        <ele>1107</ele>
        <time>2016-10-09T13:07:32.819Z</time>
      </trkpt>
      <trkpt lat="47.90992" lon="6.92402">
        <ele>1108</ele>
        <time>2016-10-09T13:07:41.821Z</time>
      </trkpt>
      <trkpt lat="47.9101" lon="6.924">
        <ele>1103</ele>
        <time>2016-10-09T13:07:58.813Z</time>
      </trkpt>
      <trkpt lat="47.91032" lon="6.92407">
        <ele>1100</ele>
        <time>2016-10-09T13:08:11.818Z</time>
      </trkpt>
      <trkpt lat="47.91045" lon="6.9241">
        <ele>1099</ele>
        <time>2016-10-09T13:08:18.815Z</time>
      </trkpt>
      <trkpt lat="47.91077" lon="6.92411">
        <ele>1099</ele>
        <time>2016-10-09T13:08:50.816Z</time>
      </trkpt>
      <trkpt lat="47.9109" lon="6.92417">
        <ele>1103</ele>
        <time>2016-10-09T13:09:01.819Z</time>
      </trkpt>
      <trkpt lat="47.91152" lon="6.92422">
        <ele>1103</ele>
        <time>2016-10-09T13:09:45.815Z</time>
      </trkpt>
      <trkpt lat="47.91197" lon="6.92407">
        <ele>1084</ele>
        <time>2016-10-09T13:10:18.815Z</time>
      </trkpt>
      <trkpt lat="47.91259" lon="6.92414">
        <ele>1080</ele>
        <time>2016-10-09T13:11:05.82Z</time>
      </trkpt>
      <trkpt lat="47.91279" lon="6.92422">
        <ele>1087</ele>
        <time>2016-10-09T13:11:17.818Z</time>
      </trkpt>
      <trkpt lat="47.91296" lon="6.92425">
        <ele>1085</ele>
        <time>2016-10-09T13:11:25.815Z</time>
      </trkpt>
      <trkpt lat="47.91332" lon="6.92425">
        <ele>1075</ele>
        <time>2016-10-09T13:11:55.818Z</time>
      </trkpt>
      <trkpt lat="47.91358" lon="6.92426">
        <ele>1071</ele>
        <time>2016-10-09T13:12:15.816Z</time>
      </trkpt>
      <trkpt lat="47.91384" lon="6.92432">
        <ele>1068</ele>
        <time>2016-10-09T13:12:36.815Z</time>
      </trkpt>
      <trkpt lat="47.91401" lon="6.92438">
        <ele>1066</ele>
        <time>2016-10-09T13:12:56.819Z</time>
      </trkpt>
      <trkpt lat="47.91483" lon="6.92427">
        <ele>1050</ele>
        <time>2016-10-09T13:13:55.815Z</time>
      </trkpt>
      <trkpt lat="47.91505" lon="6.9243">
        <ele>1044</ele>
        <time>2016-10-09T13:14:11.816Z</time>
      </trkpt>
      <trkpt lat="47.91553" lon="6.92426">
        <ele>1042</ele>
        <time>2016-10-09T13:14:48.815Z</time>
      </trkpt>
      <trkpt lat="47.916" lon="6.92417">
        <ele>1020</ele>
        <time>2016-10-09T13:15:18.816Z</time>
      </trkpt>
      <trkpt lat="47.91671" lon="6.92388">
        <ele>1006</ele>
        <time>2016-10-09T13:16:08.811Z</time>
      </trkpt>
      <trkpt lat="47.91685" lon="6.92389">
        <ele>1005</ele>
        <time>2016-10-09T13:16:23.811Z</time>
      </trkpt>
      <trkpt lat="47.917" lon="6.92384">
        <ele>1003</ele>
        <time>2016-10-09T13:16:30.816Z</time>
      </trkpt>
      <trkpt lat="47.91732" lon="6.9237">
        <ele>1000</ele>
        <time>2016-10-09T13:17:05.81Z</time>
      </trkpt>
      <trkpt lat="47.91717" lon="6.92353">
        <ele>998</ele>
        <time>2016-10-09T13:18:05.821Z</time>
      </trkpt>
      <trkpt lat="47.91704" lon="6.92338">
        <ele>998</ele>
        <time>2016-10-09T13:18:27.813Z</time>
      </trkpt>
      <trkpt lat="47.91692" lon="6.92336">
        <ele>998</ele>
        <time>2016-10-09T13:19:27.815Z</time>
      </trkpt>
      <trkpt lat="47.91693" lon="6.92341">
        <ele>998</ele>
        <time>2016-10-09T13:20:27.821Z</time>
      </trkpt>
      <trkpt lat="47.91692" lon="6.92314">
        <ele>986</ele>
        <time>2016-10-09T13:21:15.815Z</time>
      </trkpt>
      <trkpt lat="47.91688" lon="6.9224">
        <ele>973</ele>
        <time>2016-10-09T13:22:04.814Z</time>
      </trkpt>
      <trkpt lat="47.91664" lon="6.92153">
        <ele>960</ele>
        <time>2016-10-09T13:22:50.821Z</time>
      </trkpt>
      <trkpt lat="47.91669" lon="6.92134">
        <ele>963</ele>
        <time>2016-10-09T13:23:02.815Z</time>
      </trkpt>
      <trkpt lat="47.91682" lon="6.92123">
        <ele>962</ele>
        <time>2016-10-09T13:23:15.815Z</time>
      </trkpt>
      <trkpt lat="47.91695" lon="6.92115">
        <ele>962</ele>
        <time>2016-10-09T13:23:22.816Z</time>
      </trkpt>
      <trkpt lat="47.91703" lon="6.92097">
        <ele>962</ele>
        <time>2016-10-09T13:23:32.815Z</time>
      </trkpt>
      <trkpt lat="47.9172" lon="6.92058">
        <ele>960</ele>
        <time>2016-10-09T13:24:07.816Z</time>
      </trkpt>
      <trkpt lat="47.91763" lon="6.92076">
        <ele>958</ele>
        <time>2016-10-09T13:24:41.81Z</time>
      </trkpt>
      <trkpt lat="47.91789" lon="6.92081">
        <ele>956</ele>
        <time>2016-10-09T13:25:31.813Z</time>
      </trkpt>
      <trkpt lat="47.91803" lon="6.9208">
        <ele>955</ele>
        <time>2016-10-09T13:25:43.815Z</time>
      </trkpt>
      <trkpt lat="47.91817" lon="6.92085">
        <ele>957</ele>
        <time>2016-10-09T13:25:57.821Z</time>
      </trkpt>
      <trkpt lat="47.91831" lon="6.92123">
        <ele>960</ele>
        <time>2016-10-09T13:26:24.92Z</time>
      </trkpt>
      <trkpt lat="47.91852" lon="6.92148">
        <ele>954</ele>
        <time>2016-10-09T13:26:45.815Z</time>
      </trkpt>
      <trkpt lat="47.91863" lon="6.92133">
        <ele>951</ele>
        <time>2016-10-09T13:26:53.81Z</time>
      </trkpt>
      <trkpt lat="47.91864" lon="6.92113">
        <ele>949</ele>
        <time>2016-10-09T13:26:59.815Z</time>
      </trkpt>
      <trkpt lat="47.91866" lon="6.92084">
        <ele>948</ele>
        <time>2016-10-09T13:27:30.815Z</time>
      </trkpt>
      <trkpt lat="47.91857" lon="6.92017">
        <ele>941</ele>
        <time>2016-10-09T13:28:09.813Z</time>
      </trkpt>
      <trkpt lat="47.91895" lon="6.91981">
        <ele>932</ele>
        <time>2016-10-09T13:29:00.813Z</time>
      </trkpt>
      <trkpt lat="47.91911" lon="6.91977">
        <ele>930</ele>
        <time>2016-10-09T13:29:11.813Z</time>
      </trkpt>
      <trkpt lat="47.91936" lon="6.91985">
        <ele>916</ele>
        <time>2016-10-09T13:29:34.814Z</time>
      </trkpt>
      <trkpt lat="47.91955" lon="6.91979">
        <ele>913</ele>
        <time>2016-10-09T13:29:41.815Z</time>
      </trkpt>
      <trkpt lat="47.91967" lon="6.91969">
        <ele>912</ele>
        <time>2016-10-09T13:29:46.815Z</time>
      </trkpt>
      <trkpt lat="47.91977" lon="6.91947">
        <ele>911</ele>
        <time>2016-10-09T13:29:59.816Z</time>
      </trkpt>
      <trkpt lat="47.9202" lon="6.91899">
        <ele>902</ele>
        <time>2016-10-09T13:30:38.81Z</time>
      </trkpt>
      <trkpt lat="47.92027" lon="6.91893">
        <ele>902</ele>
        <time>2016-10-09T13:31:38.818Z</time>
      </trkpt>
      <trkpt lat="47.92042" lon="6.91875">
        <ele>902</ele>
        <time>2016-10-09T13:32:38.82Z</time>
      </trkpt>
      <trkpt lat="47.92079" lon="6.9183">
        <ele>903</ele>
        <time>2016-10-09T13:33:18.821Z</time>
      </trkpt>
      <trkpt lat="47.92111" lon="6.91816">
        <ele>903</ele>
        <time>2016-10-09T13:34:03.815Z</time>
      </trkpt>
      <trkpt lat="47.92125" lon="6.91822">
        <ele>903</ele>
        <time>2016-10-09T13:34:16.815Z</time>
      </trkpt>
      <trkpt lat="47.9214" lon="6.91822">
        <ele>903</ele>
        <time>2016-10-09T13:34:26.82Z</time>
      </trkpt>
      <trkpt lat="47.92158" lon="6.91809">
        <ele>903</ele>
        <time>2016-10-09T13:34:38.814Z</time>
      </trkpt>
      <trkpt lat="47.92176" lon="6.91806">
        <ele>900</ele>
        <time>2016-10-09T13:34:53.815Z</time>
      </trkpt>
      <trkpt lat="47.92197" lon="6.91805">
        <ele>899</ele>
        <time>2016-10-09T13:35:07.815Z</time>
      </trkpt>
      <trkpt lat="47.92209" lon="6.91792">
        <ele>898</ele>
        <time>2016-10-09T13:35:15.815Z</time>
      </trkpt>
      <trkpt lat="47.92218" lon="6.91773">
        <ele>898</ele>
        <time>2016-10-09T13:35:26.814Z</time>
      </trkpt>
      <trkpt lat="47.92232" lon="6.91754">
        <ele>897</ele>
        <time>2016-10-09T13:35:44.815Z</time>
      </trkpt>
      <trkpt lat="47.92245" lon="6.91745">
        <ele>897</ele>
        <time>2016-10-09T13:35:54.81Z</time>
      </trkpt>
      <trkpt lat="47.92262" lon="6.91745">
        <ele>898</ele>
        <time>2016-10-09T13:36:07.814Z</time>
      </trkpt>
      <trkpt lat="47.92273" lon="6.91731">
        <ele>901</ele>
        <time>2016-10-09T13:36:11.81Z</time>
      </trkpt>
      <trkpt lat="47.92287" lon="6.91727">
        <ele>902</ele>
        <time>2016-10-09T13:36:18.81Z</time>
      </trkpt>
      <trkpt lat="47.92275" lon="6.91713">
        <ele>901</ele>
        <time>2016-10-09T13:36:24.811Z</time>
      </trkpt>
      <trkpt lat="47.9228" lon="6.9169">
        <ele>900</ele>
        <time>2016-10-09T13:36:36.816Z</time>
      </trkpt>
      <trkpt lat="47.92294" lon="6.91681">
        <ele>901</ele>
        <time>2016-10-09T13:36:44.815Z</time>
      </trkpt>
      <trkpt lat="47.92303" lon="6.91661">
        <ele>897</ele>
        <time>2016-10-09T13:36:57.815Z</time>
      </trkpt>
      <trkpt lat="47.92302" lon="6.91641">
        <ele>897</ele>
        <time>2016-10-09T13:37:57.83Z</time>
      </trkpt>
      <trkpt lat="47.92307" lon="6.91645">
        <ele>897</ele>
        <time>2016-10-09T13:38:58.815Z</time>
      </trkpt>
      <trkpt lat="47.92318" lon="6.91631">
        <ele>896</ele>
        <time>2016-10-09T13:39:58.82Z</time>
      </trkpt>
      <trkpt lat="47.92316" lon="6.91635">
        <ele>896</ele>
        <time>2016-10-09T13:40:58.82Z</time>
      </trkpt>
      <trkpt lat="47.92324" lon="6.91623">
        <ele>895</ele>
        <time>2016-10-09T13:41:58.82Z</time>
      </trkpt>
      <trkpt lat="47.92322" lon="6.91613">
        <ele>894</ele>
        <time>2016-10-09T13:42:58.82Z</time>
      </trkpt>
      <trkpt lat="47.9232" lon="6.91617">
        <ele>895</ele>
        <time>2016-10-09T13:43:59.815Z</time>
      </trkpt>
      <trkpt lat="47.92326" lon="6.91616">
        <ele>894</ele>
        <time>2016-10-09T13:44:59.82Z</time>
      </trkpt>
      <trkpt lat="47.92311" lon="6.91612">
        <ele>895</ele>
        <time>2016-10-09T13:46:00.819Z</time>
      </trkpt>
      <trkpt lat="47.92336" lon="6.91553">
        <ele>889</ele>
        <time>2016-10-09T13:46:59.813Z</time>
      </trkpt>
      <trkpt lat="47.92351" lon="6.91512">
        <ele>888</ele>
        <time>2016-10-09T13:47:27.813Z</time>
      </trkpt>
      <trkpt lat="47.92357" lon="6.9149">
        <ele>886</ele>
        <time>2016-10-09T13:47:36.815Z</time>
      </trkpt>
      <trkpt lat="47.92359" lon="6.91386">
        <ele>880</ele>
        <time>2016-10-09T13:48:37.813Z</time>
      </trkpt>
      <trkpt lat="47.9236" lon="6.91351">
        <ele>878</ele>
        <time>2016-10-09T13:48:54.81Z</time>
      </trkpt>
      <trkpt lat="47.92363" lon="6.91323">
        <ele>874</ele>
        <time>2016-10-09T13:49:20.815Z</time>
      </trkpt>
      <trkpt lat="47.92376" lon="6.91305">
        <ele>873</ele>
        <time>2016-10-09T13:49:29.814Z</time>
      </trkpt>
      <trkpt lat="47.9234" lon="6.91263">
        <ele>874</ele>
        <time>2016-10-09T13:50:06.814Z</time>
      </trkpt>
      <trkpt lat="47.92333" lon="6.91239">
        <ele>874</ele>
        <time>2016-10-09T13:50:59.813Z</time>
      </trkpt>
      <trkpt lat="47.92349" lon="6.91225">
        <ele>872</ele>
        <time>2016-10-09T13:51:11.811Z</time>
      </trkpt>
      <trkpt lat="47.9235" lon="6.91203">
        <ele>872</ele>
        <time>2016-10-09T13:51:15.815Z</time>
      </trkpt>
      <trkpt lat="47.92363" lon="6.91155">
        <ele>870</ele>
        <time>2016-10-09T13:51:58.814Z</time>
      </trkpt>
      <trkpt lat="47.9239" lon="6.9109">
        <ele>860</ele>
        <time>2016-10-09T13:52:46.813Z</time>
      </trkpt>
      <trkpt lat="47.92396" lon="6.91046">
        <ele>860</ele>
        <time>2016-10-09T13:53:14.809Z</time>
      </trkpt>
      <trkpt lat="47.924" lon="6.90983">
        <ele>858</ele>
        <time>2016-10-09T13:53:56.813Z</time>
      </trkpt>
      <trkpt lat="47.92387" lon="6.90967">
        <ele>864</ele>
        <time>2016-10-09T13:54:08.811Z</time>
      </trkpt>
      <trkpt lat="47.92394" lon="6.90942">
        <ele>863</ele>
        <time>2016-10-09T13:54:24.811Z</time>
      </trkpt>
      <trkpt lat="47.92418" lon="6.90893">
        <ele>851</ele>
        <time>2016-10-09T13:55:24.815Z</time>
      </trkpt>
      <trkpt lat="47.92455" lon="6.90854">
        <ele>850</ele>
        <time>2016-10-09T13:55:48.81Z</time>
      </trkpt>
      <trkpt lat="47.92464" lon="6.90835">
        <ele>849</ele>
        <time>2016-10-09T13:56:09.815Z</time>
      </trkpt>
      <trkpt lat="47.92464" lon="6.90792">
        <ele>850</ele>
        <time>2016-10-09T13:57:00.811Z</time>
      </trkpt>
      <trkpt lat="47.92469" lon="6.90772">
        <ele>849</ele>
        <time>2016-10-09T13:57:08.811Z</time>
      </trkpt>
      <trkpt lat="47.92481" lon="6.90746">
        <ele>847</ele>
        <time>2016-10-09T13:57:24.81Z</time>
      </trkpt>
      <trkpt lat="47.92476" lon="6.90704">
        <ele>853</ele>
        <time>2016-10-09T13:58:24.813Z</time>
      </trkpt>
      <trkpt lat="47.92493" lon="6.90659">
        <ele>851</ele>
        <time>2016-10-09T13:59:24.813Z</time>
      </trkpt>
      <trkpt lat="47.92506" lon="6.90623">
        <ele>843</ele>
        <time>2016-10-09T13:59:39.813Z</time>
      </trkpt>
      <trkpt lat="47.92502" lon="6.90602">
        <ele>845</ele>
        <time>2016-10-09T13:59:48.813Z</time>
      </trkpt>
      <trkpt lat="47.925" lon="6.90535">
        <ele>845</ele>
        <time>2016-10-09T14:00:32.815Z</time>
      </trkpt>
      <trkpt lat="47.92499" lon="6.90462">
        <ele>862</ele>
        <time>2016-10-09T14:01:24.813Z</time>
      </trkpt>
      <trkpt lat="47.92506" lon="6.90419">
        <ele>852</ele>
        <time>2016-10-09T14:01:53.815Z</time>
      </trkpt>
      <trkpt lat="47.92514" lon="6.90394">
        <ele>847</ele>
        <time>2016-10-09T14:02:10.814Z</time>
      </trkpt>
      <trkpt lat="47.92523" lon="6.90367">
        <ele>845</ele>
        <time>2016-10-09T14:02:32.814Z</time>
      </trkpt>
      <trkpt lat="47.92531" lon="6.90337">
        <ele>845</ele>
        <time>2016-10-09T14:02:50.81Z</time>
      </trkpt>
      <trkpt lat="47.92537" lon="6.90318">
        <ele>844</ele>
        <time>2016-10-09T14:03:04.809Z</time>
      </trkpt>
      <trkpt lat="47.92532" lon="6.90294">
        <ele>844</ele>
        <time>2016-10-09T14:03:17.813Z</time>
      </trkpt>
      <trkpt lat="47.9253" lon="6.90273">
        <ele>844</ele>
        <time>2016-10-09T14:03:30.816Z</time>
      </trkpt>
      <trkpt lat="47.92528" lon="6.90249">
        <ele>843</ele>
        <time>2016-10-09T14:03:57.815Z</time>
      </trkpt>
      <trkpt lat="47.92529" lon="6.90177">
        <ele>841</ele>
        <time>2016-10-09T14:04:45.815Z</time>
      </trkpt>
      <trkpt lat="47.92547" lon="6.90132">
        <ele>835</ele>
        <time>2016-10-09T14:05:21.815Z</time>
      </trkpt>
      <trkpt lat="47.92529" lon="6.9011">
        <ele>836</ele>
        <time>2016-10-09T14:05:40.81Z</time>
      </trkpt>
      <trkpt lat="47.92519" lon="6.90116">
        <ele>836</ele>
        <time>2016-10-09T14:06:40.813Z</time>
      </trkpt>
      <trkpt lat="47.92518" lon="6.90133">
        <ele>837</ele>
        <time>2016-10-09T14:07:40.814Z</time>
      </trkpt>
      <trkpt lat="47.92522" lon="6.90101">
        <ele>836</ele>
        <time>2016-10-09T14:08:40.816Z</time>
      </trkpt>
      <trkpt lat="47.92507" lon="6.90037">
        <ele>830</ele>
        <time>2016-10-09T14:09:21.818Z</time>
      </trkpt>
      <trkpt lat="47.92484" lon="6.89979">
        <ele>832</ele>
        <time>2016-10-09T14:10:03.816Z</time>
      </trkpt>
      <trkpt lat="47.92504" lon="6.89919">
        <ele>818</ele>
        <time>2016-10-09T14:11:04.81Z</time>
      </trkpt>
      <trkpt lat="47.92508" lon="6.899">
        <ele>817</ele>
        <time>2016-10-09T14:11:15.813Z</time>
      </trkpt>
      <trkpt lat="47.92502" lon="6.8988">
        <ele>817</ele>
        <time>2016-10-09T14:11:28.814Z</time>
      </trkpt>
      <trkpt lat="47.92498" lon="6.8986">
        <ele>817</ele>
        <time>2016-10-09T14:11:39.814Z</time>
      </trkpt>
      <trkpt lat="47.92497" lon="6.89828">
        <ele>808</ele>
        <time>2016-10-09T14:11:55.815Z</time>
      </trkpt>
      <trkpt lat="47.92516" lon="6.8972">
        <ele>798</ele>
        <time>2016-10-09T14:12:49.815Z</time>
      </trkpt>
      <trkpt lat="47.92522" lon="6.8967">
        <ele>795</ele>
        <time>2016-10-09T14:13:16.811Z</time>
      </trkpt>
      <trkpt lat="47.92528" lon="6.89611">
        <ele>793</ele>
        <time>2016-10-09T14:13:49.815Z</time>
      </trkpt>
      <trkpt lat="47.9254" lon="6.89542">
        <ele>791</ele>
        <time>2016-10-09T14:14:22.814Z</time>
      </trkpt>
      <trkpt lat="47.92537" lon="6.89498">
        <ele>787</ele>
        <time>2016-10-09T14:14:43.813Z</time>
      </trkpt>
      <trkpt lat="47.92539" lon="6.89473">
        <ele>786</ele>
        <time>2016-10-09T14:14:57.815Z</time>
      </trkpt>
      <trkpt lat="47.92535" lon="6.89453">
        <ele>785</ele>
        <time>2016-10-09T14:15:16.814Z</time>
      </trkpt>
      <trkpt lat="47.92524" lon="6.89436">
        <ele>784</ele>
        <time>2016-10-09T14:15:54.81Z</time>
      </trkpt>
      <trkpt lat="47.92525" lon="6.89397">
        <ele>777</ele>
        <time>2016-10-09T14:16:19.81Z</time>
      </trkpt>
      <trkpt lat="47.92522" lon="6.89374">
        <ele>776</ele>
        <time>2016-10-09T14:16:30.813Z</time>
      </trkpt>
      <trkpt lat="47.92531" lon="6.89359">
        <ele>775</ele>
        <time>2016-10-09T14:16:48.813Z</time>
      </trkpt>
      <trkpt lat="47.92541" lon="6.89344">
        <ele>775</ele>
        <time>2016-10-09T14:16:59.815Z</time>
      </trkpt>
      <trkpt lat="47.92548" lon="6.89325">
        <ele>769</ele>
        <time>2016-10-09T14:17:08.816Z</time>
      </trkpt>
      <trkpt lat="47.92544" lon="6.89281">
        <ele>766</ele>
        <time>2016-10-09T14:17:32.813Z</time>
      </trkpt>
      <trkpt lat="47.92545" lon="6.8926">
        <ele>765</ele>
        <time>2016-10-09T14:17:42.814Z</time>
      </trkpt>
      <trkpt lat="47.92546" lon="6.89236">
        <ele>757</ele>
        <time>2016-10-09T14:17:54.815Z</time>
      </trkpt>
      <trkpt lat="47.92557" lon="6.89223">
        <ele>756</ele>
        <time>2016-10-09T14:18:05.815Z</time>
      </trkpt>
      <trkpt lat="47.92571" lon="6.89209">
        <ele>755</ele>
        <time>2016-10-09T14:18:18.815Z</time>
      </trkpt>
      <trkpt lat="47.9261" lon="6.89172">
        <ele>751</ele>
        <time>2016-10-09T14:18:57.814Z</time>
      </trkpt>
      <trkpt lat="47.92634" lon="6.89159">
        <ele>744</ele>
        <time>2016-10-09T14:19:22.815Z</time>
      </trkpt>
      <trkpt lat="47.92633" lon="6.89149">
        <ele>743</ele>
        <time>2016-10-09T14:19:29.82Z</time>
      </trkpt>
    </trkseg>
  </trk>
</gpx>